<?xml version="1.0" encoding="UTF-8" standalone="no" ?>
<gpx xmlns="http://www.topografix.com/GPX/1/1" xmlns:xsi="http://www.w3.org/2001/XMLSchema-instance" xsi:schemaLocation="http://www.topografix.com/GPX/1/1 http://www.topografix.com/GPX/1/1/gpx.xsd" version="1.1" creator="VisuGPX - https://www.visugpx.com">
  <metadata>
    <name>St jacques  étape 1-15930713</name>
    <desc><![CDATA[St jacques, nuitée à ancien carmel Moissac]]></desc>
  </metadata>
  <trk>
    <name><![CDATA[St jacques  étape 1-15930713]]></name>
    <trkseg>
      <trkpt lat="44.03098" lon="0.3731">
        <ele>108</ele>
        <time>2022-12-08T22:37:53Z</time>
      </trkpt>
      <trkpt lat="44.03097" lon="0.373">
        <ele>109</ele>
        <time>2022-12-08T22:37:54Z</time>
      </trkpt>
      <trkpt lat="44.03073" lon="0.37302">
        <ele>109</ele>
        <time>2022-12-08T22:37:59Z</time>
      </trkpt>
      <trkpt lat="44.03057" lon="0.37302">
        <ele>109</ele>
        <time>2022-12-08T22:38:01Z</time>
      </trkpt>
      <trkpt lat="44.02934" lon="0.37287">
        <ele>110</ele>
        <time>2022-12-08T22:38:23Z</time>
      </trkpt>
      <trkpt lat="44.02919" lon="0.37289">
        <ele>110</ele>
        <time>2022-12-08T22:38:26Z</time>
      </trkpt>
      <trkpt lat="44.02912" lon="0.37293">
        <ele>110</ele>
        <time>2022-12-08T22:38:27Z</time>
      </trkpt>
      <trkpt lat="44.02895" lon="0.37307">
        <ele>109</ele>
        <time>2022-12-08T22:38:31Z</time>
      </trkpt>
      <trkpt lat="44.02869" lon="0.37339">
        <ele>108</ele>
        <time>2022-12-08T22:38:37Z</time>
      </trkpt>
      <trkpt lat="44.02846" lon="0.37363">
        <ele>107</ele>
        <time>2022-12-08T22:38:42Z</time>
      </trkpt>
      <trkpt lat="44.02729" lon="0.37465">
        <ele>106</ele>
        <time>2022-12-08T22:39:07Z</time>
      </trkpt>
      <trkpt lat="44.02709" lon="0.37494">
        <ele>107</ele>
        <time>2022-12-08T22:39:12Z</time>
      </trkpt>
      <trkpt lat="44.02684" lon="0.37562">
        <ele>109</ele>
        <time>2022-12-08T22:39:22Z</time>
      </trkpt>
      <trkpt lat="44.02671" lon="0.37588">
        <ele>110</ele>
        <time>2022-12-08T22:39:26Z</time>
      </trkpt>
      <trkpt lat="44.02656" lon="0.37608">
        <ele>111</ele>
        <time>2022-12-08T22:39:29Z</time>
      </trkpt>
      <trkpt lat="44.02588" lon="0.37687">
        <ele>114</ele>
        <time>2022-12-08T22:39:45Z</time>
      </trkpt>
      <trkpt lat="44.02564" lon="0.37708">
        <ele>115</ele>
        <time>2022-12-08T22:39:50Z</time>
      </trkpt>
      <trkpt lat="44.02548" lon="0.37716">
        <ele>116</ele>
        <time>2022-12-08T22:39:53Z</time>
      </trkpt>
      <trkpt lat="44.02494" lon="0.37722">
        <ele>116</ele>
        <time>2022-12-08T22:40:03Z</time>
      </trkpt>
      <trkpt lat="44.02477" lon="0.37728">
        <ele>116</ele>
        <time>2022-12-08T22:40:06Z</time>
      </trkpt>
      <trkpt lat="44.02462" lon="0.37738">
        <ele>116</ele>
        <time>2022-12-08T22:40:09Z</time>
      </trkpt>
      <trkpt lat="44.02453" lon="0.37747">
        <ele>116</ele>
        <time>2022-12-08T22:40:11Z</time>
      </trkpt>
      <trkpt lat="44.02277" lon="0.38023">
        <ele>115</ele>
        <time>2022-12-08T22:40:58Z</time>
      </trkpt>
      <trkpt lat="44.02195" lon="0.38168">
        <ele>117</ele>
        <time>2022-12-08T22:41:22Z</time>
      </trkpt>
      <trkpt lat="44.02061" lon="0.38377">
        <ele>127</ele>
        <time>2022-12-08T22:41:58Z</time>
      </trkpt>
      <trkpt lat="44.02039" lon="0.38415">
        <ele>129</ele>
        <time>2022-12-08T22:42:04Z</time>
      </trkpt>
      <trkpt lat="44.02028" lon="0.38443">
        <ele>129</ele>
        <time>2022-12-08T22:42:08Z</time>
      </trkpt>
      <trkpt lat="44.01973" lon="0.38632">
        <ele>131</ele>
        <time>2022-12-08T22:42:34Z</time>
      </trkpt>
      <trkpt lat="44.01965" lon="0.38654">
        <ele>131</ele>
        <time>2022-12-08T22:42:37Z</time>
      </trkpt>
      <trkpt lat="44.01956" lon="0.38674">
        <ele>132</ele>
        <time>2022-12-08T22:42:40Z</time>
      </trkpt>
      <trkpt lat="44.0193" lon="0.38726">
        <ele>134</ele>
        <time>2022-12-08T22:42:48Z</time>
      </trkpt>
      <trkpt lat="44.01891" lon="0.38799">
        <ele>138</ele>
        <time>2022-12-08T22:43:00Z</time>
      </trkpt>
      <trkpt lat="44.01847" lon="0.38867">
        <ele>140</ele>
        <time>2022-12-08T22:43:12Z</time>
      </trkpt>
      <trkpt lat="44.01831" lon="0.38897">
        <ele>141</ele>
        <time>2022-12-08T22:43:16Z</time>
      </trkpt>
      <trkpt lat="44.01814" lon="0.38942">
        <ele>144</ele>
        <time>2022-12-08T22:43:23Z</time>
      </trkpt>
      <trkpt lat="44.0178" lon="0.39073">
        <ele>150</ele>
        <time>2022-12-08T22:43:41Z</time>
      </trkpt>
      <trkpt lat="44.01771" lon="0.39091">
        <ele>150</ele>
        <time>2022-12-08T22:43:44Z</time>
      </trkpt>
      <trkpt lat="44.01762" lon="0.39101">
        <ele>150</ele>
        <time>2022-12-08T22:43:46Z</time>
      </trkpt>
      <trkpt lat="44.01747" lon="0.39109">
        <ele>151</ele>
        <time>2022-12-08T22:43:48Z</time>
      </trkpt>
      <trkpt lat="44.01715" lon="0.39113">
        <ele>151</ele>
        <time>2022-12-08T22:43:54Z</time>
      </trkpt>
      <trkpt lat="44.01618" lon="0.3912">
        <ele>152</ele>
        <time>2022-12-08T22:44:11Z</time>
      </trkpt>
      <trkpt lat="44.01602" lon="0.39119">
        <ele>152</ele>
        <time>2022-12-08T22:44:14Z</time>
      </trkpt>
      <trkpt lat="44.01586" lon="0.39115">
        <ele>152</ele>
        <time>2022-12-08T22:44:17Z</time>
      </trkpt>
      <trkpt lat="44.01571" lon="0.39106">
        <ele>153</ele>
        <time>2022-12-08T22:44:20Z</time>
      </trkpt>
      <trkpt lat="44.01519" lon="0.39063">
        <ele>159</ele>
        <time>2022-12-08T22:44:31Z</time>
      </trkpt>
      <trkpt lat="44.01502" lon="0.39052">
        <ele>161</ele>
        <time>2022-12-08T22:44:34Z</time>
      </trkpt>
      <trkpt lat="44.01482" lon="0.39042">
        <ele>163</ele>
        <time>2022-12-08T22:44:38Z</time>
      </trkpt>
      <trkpt lat="44.0147" lon="0.3904">
        <ele>164</ele>
        <time>2022-12-08T22:44:40Z</time>
      </trkpt>
      <trkpt lat="44.0146" lon="0.39041">
        <ele>164</ele>
        <time>2022-12-08T22:44:42Z</time>
      </trkpt>
      <trkpt lat="44.01444" lon="0.39051">
        <ele>166</ele>
        <time>2022-12-08T22:44:45Z</time>
      </trkpt>
      <trkpt lat="44.01438" lon="0.39059">
        <ele>166</ele>
        <time>2022-12-08T22:44:47Z</time>
      </trkpt>
      <trkpt lat="44.01411" lon="0.39113">
        <ele>168</ele>
        <time>2022-12-08T22:44:55Z</time>
      </trkpt>
      <trkpt lat="44.01397" lon="0.39132">
        <ele>168</ele>
        <time>2022-12-08T22:44:58Z</time>
      </trkpt>
      <trkpt lat="44.01379" lon="0.39153">
        <ele>168</ele>
        <time>2022-12-08T22:45:03Z</time>
      </trkpt>
      <trkpt lat="44.01355" lon="0.39173">
        <ele>170</ele>
        <time>2022-12-08T22:45:08Z</time>
      </trkpt>
      <trkpt lat="44.01311" lon="0.392">
        <ele>171</ele>
        <time>2022-12-08T22:45:16Z</time>
      </trkpt>
      <trkpt lat="44.01301" lon="0.39204">
        <ele>171</ele>
        <time>2022-12-08T22:45:18Z</time>
      </trkpt>
      <trkpt lat="44.01283" lon="0.39205">
        <ele>171</ele>
        <time>2022-12-08T22:45:21Z</time>
      </trkpt>
      <trkpt lat="44.01261" lon="0.39197">
        <ele>171</ele>
        <time>2022-12-08T22:45:25Z</time>
      </trkpt>
      <trkpt lat="44.01252" lon="0.39196">
        <ele>171</ele>
        <time>2022-12-08T22:45:27Z</time>
      </trkpt>
      <trkpt lat="44.01244" lon="0.39198">
        <ele>171</ele>
        <time>2022-12-08T22:45:28Z</time>
      </trkpt>
      <trkpt lat="44.0123" lon="0.39205">
        <ele>171</ele>
        <time>2022-12-08T22:45:31Z</time>
      </trkpt>
      <trkpt lat="44.01217" lon="0.39221">
        <ele>170</ele>
        <time>2022-12-08T22:45:34Z</time>
      </trkpt>
      <trkpt lat="44.01153" lon="0.39311">
        <ele>171</ele>
        <time>2022-12-08T22:45:50Z</time>
      </trkpt>
      <trkpt lat="44.01085" lon="0.39398">
        <ele>174</ele>
        <time>2022-12-08T22:46:07Z</time>
      </trkpt>
      <trkpt lat="44.01066" lon="0.39425">
        <ele>174</ele>
        <time>2022-12-08T22:46:11Z</time>
      </trkpt>
      <trkpt lat="44.01051" lon="0.39449">
        <ele>174</ele>
        <time>2022-12-08T22:46:16Z</time>
      </trkpt>
      <trkpt lat="44.01047" lon="0.39463">
        <ele>174</ele>
        <time>2022-12-08T22:46:17Z</time>
      </trkpt>
      <trkpt lat="44.01044" lon="0.39481">
        <ele>174</ele>
        <time>2022-12-08T22:46:20Z</time>
      </trkpt>
      <trkpt lat="44.01046" lon="0.39499">
        <ele>174</ele>
        <time>2022-12-08T22:46:22Z</time>
      </trkpt>
      <trkpt lat="44.01058" lon="0.39564">
        <ele>172</ele>
        <time>2022-12-08T22:46:31Z</time>
      </trkpt>
      <trkpt lat="44.01061" lon="0.39583">
        <ele>171</ele>
        <time>2022-12-08T22:46:33Z</time>
      </trkpt>
      <trkpt lat="44.01061" lon="0.39619">
        <ele>171</ele>
        <time>2022-12-08T22:46:38Z</time>
      </trkpt>
      <trkpt lat="44.01038" lon="0.39785">
        <ele>171</ele>
        <time>2022-12-08T22:46:59Z</time>
      </trkpt>
      <trkpt lat="44.01026" lon="0.39903">
        <ele>170</ele>
        <time>2022-12-08T22:47:15Z</time>
      </trkpt>
      <trkpt lat="44.01022" lon="0.3992">
        <ele>170</ele>
        <time>2022-12-08T22:47:17Z</time>
      </trkpt>
      <trkpt lat="44.01014" lon="0.39939">
        <ele>171</ele>
        <time>2022-12-08T22:47:20Z</time>
      </trkpt>
      <trkpt lat="44.00986" lon="0.39987">
        <ele>173</ele>
        <time>2022-12-08T22:47:28Z</time>
      </trkpt>
      <trkpt lat="44.00972" lon="0.40014">
        <ele>173</ele>
        <time>2022-12-08T22:47:32Z</time>
      </trkpt>
      <trkpt lat="44.00969" lon="0.40026">
        <ele>173</ele>
        <time>2022-12-08T22:47:34Z</time>
      </trkpt>
      <trkpt lat="44.00963" lon="0.40053">
        <ele>173</ele>
        <time>2022-12-08T22:47:37Z</time>
      </trkpt>
      <trkpt lat="44.00954" lon="0.40119">
        <ele>171</ele>
        <time>2022-12-08T22:47:46Z</time>
      </trkpt>
      <trkpt lat="44.00943" lon="0.40152">
        <ele>170</ele>
        <time>2022-12-08T22:47:51Z</time>
      </trkpt>
      <trkpt lat="44.00896" lon="0.40237">
        <ele>171</ele>
        <time>2022-12-08T22:48:04Z</time>
      </trkpt>
      <trkpt lat="44.00889" lon="0.40257">
        <ele>171</ele>
        <time>2022-12-08T22:48:07Z</time>
      </trkpt>
      <trkpt lat="44.00883" lon="0.40282">
        <ele>171</ele>
        <time>2022-12-08T22:48:10Z</time>
      </trkpt>
      <trkpt lat="44.00868" lon="0.40378">
        <ele>169</ele>
        <time>2022-12-08T22:48:23Z</time>
      </trkpt>
      <trkpt lat="44.00855" lon="0.40427">
        <ele>168</ele>
        <time>2022-12-08T22:48:30Z</time>
      </trkpt>
      <trkpt lat="44.00829" lon="0.40512">
        <ele>167</ele>
        <time>2022-12-08T22:48:42Z</time>
      </trkpt>
      <trkpt lat="44.00824" lon="0.40562">
        <ele>165</ele>
        <time>2022-12-08T22:48:48Z</time>
      </trkpt>
      <trkpt lat="44.00822" lon="0.40745">
        <ele>169</ele>
        <time>2022-12-08T22:49:11Z</time>
      </trkpt>
      <trkpt lat="44.00813" lon="0.40865">
        <ele>166</ele>
        <time>2022-12-08T22:49:27Z</time>
      </trkpt>
      <trkpt lat="44.00812" lon="0.40896">
        <ele>165</ele>
        <time>2022-12-08T22:49:31Z</time>
      </trkpt>
      <trkpt lat="44.00815" lon="0.40924">
        <ele>164</ele>
        <time>2022-12-08T22:49:34Z</time>
      </trkpt>
      <trkpt lat="44.0082" lon="0.40948">
        <ele>165</ele>
        <time>2022-12-08T22:49:38Z</time>
      </trkpt>
      <trkpt lat="44.00909" lon="0.41216">
        <ele>173</ele>
        <time>2022-12-08T22:50:15Z</time>
      </trkpt>
      <trkpt lat="44.00914" lon="0.41242">
        <ele>173</ele>
        <time>2022-12-08T22:50:19Z</time>
      </trkpt>
      <trkpt lat="44.00914" lon="0.41279">
        <ele>173</ele>
        <time>2022-12-08T22:50:24Z</time>
      </trkpt>
      <trkpt lat="44.00943" lon="0.41283">
        <ele>172</ele>
        <time>2022-12-08T22:50:29Z</time>
      </trkpt>
      <trkpt lat="44.00982" lon="0.41282">
        <ele>171</ele>
        <time>2022-12-08T22:50:36Z</time>
      </trkpt>
      <trkpt lat="44.01005" lon="0.41352">
        <ele>170</ele>
        <time>2022-12-08T22:50:46Z</time>
      </trkpt>
      <trkpt lat="44.01023" lon="0.41403">
        <ele>169</ele>
        <time>2022-12-08T22:50:53Z</time>
      </trkpt>
      <trkpt lat="44.01046" lon="0.41458">
        <ele>169</ele>
        <time>2022-12-08T22:51:01Z</time>
      </trkpt>
      <trkpt lat="44.01051" lon="0.41482">
        <ele>169</ele>
        <time>2022-12-08T22:51:04Z</time>
      </trkpt>
      <trkpt lat="44.01051" lon="0.41497">
        <ele>169</ele>
        <time>2022-12-08T22:51:06Z</time>
      </trkpt>
      <trkpt lat="44.01047" lon="0.41536">
        <ele>167</ele>
        <time>2022-12-08T22:51:11Z</time>
      </trkpt>
      <trkpt lat="44.01025" lon="0.41687">
        <ele>160</ele>
        <time>2022-12-08T22:51:31Z</time>
      </trkpt>
      <trkpt lat="44.01016" lon="0.41727">
        <ele>159</ele>
        <time>2022-12-08T22:51:36Z</time>
      </trkpt>
      <trkpt lat="44.00984" lon="0.41834">
        <ele>154</ele>
        <time>2022-12-08T22:51:51Z</time>
      </trkpt>
      <trkpt lat="44.00978" lon="0.41875">
        <ele>152</ele>
        <time>2022-12-08T22:51:56Z</time>
      </trkpt>
      <trkpt lat="44.00978" lon="0.41907">
        <ele>152</ele>
        <time>2022-12-08T22:52:01Z</time>
      </trkpt>
      <trkpt lat="44.00982" lon="0.41968">
        <ele>152</ele>
        <time>2022-12-08T22:52:08Z</time>
      </trkpt>
      <trkpt lat="44.0098" lon="0.42002">
        <ele>152</ele>
        <time>2022-12-08T22:52:13Z</time>
      </trkpt>
      <trkpt lat="44.00973" lon="0.42058">
        <ele>151</ele>
        <time>2022-12-08T22:52:20Z</time>
      </trkpt>
      <trkpt lat="44.00973" lon="0.42156">
        <ele>150</ele>
        <time>2022-12-08T22:52:33Z</time>
      </trkpt>
      <trkpt lat="44.00969" lon="0.422">
        <ele>150</ele>
        <time>2022-12-08T22:52:38Z</time>
      </trkpt>
      <trkpt lat="44.00961" lon="0.42254">
        <ele>149</ele>
        <time>2022-12-08T22:52:45Z</time>
      </trkpt>
      <trkpt lat="44.00932" lon="0.42385">
        <ele>146</ele>
        <time>2022-12-08T22:53:03Z</time>
      </trkpt>
      <trkpt lat="44.00896" lon="0.42483">
        <ele>142</ele>
        <time>2022-12-08T22:53:17Z</time>
      </trkpt>
      <trkpt lat="44.00877" lon="0.42572">
        <ele>138</ele>
        <time>2022-12-08T22:53:29Z</time>
      </trkpt>
      <trkpt lat="44.00858" lon="0.42633">
        <ele>136</ele>
        <time>2022-12-08T22:53:37Z</time>
      </trkpt>
      <trkpt lat="44.00835" lon="0.42693">
        <ele>136</ele>
        <time>2022-12-08T22:53:46Z</time>
      </trkpt>
      <trkpt lat="44.00742" lon="0.42922">
        <ele>128</ele>
        <time>2022-12-08T22:54:20Z</time>
      </trkpt>
      <trkpt lat="44.00641" lon="0.4314">
        <ele>113</ele>
        <time>2022-12-08T22:54:53Z</time>
      </trkpt>
      <trkpt lat="44.00627" lon="0.43155">
        <ele>112</ele>
        <time>2022-12-08T22:54:56Z</time>
      </trkpt>
      <trkpt lat="44.00612" lon="0.4316">
        <ele>111</ele>
        <time>2022-12-08T22:54:59Z</time>
      </trkpt>
      <trkpt lat="44.00575" lon="0.43154">
        <ele>109</ele>
        <time>2022-12-08T22:55:05Z</time>
      </trkpt>
      <trkpt lat="44.00559" lon="0.43156">
        <ele>108</ele>
        <time>2022-12-08T22:55:08Z</time>
      </trkpt>
      <trkpt lat="44.00546" lon="0.43164">
        <ele>107</ele>
        <time>2022-12-08T22:55:11Z</time>
      </trkpt>
      <trkpt lat="44.00486" lon="0.43224">
        <ele>105</ele>
        <time>2022-12-08T22:55:24Z</time>
      </trkpt>
      <trkpt lat="44.00471" lon="0.43247">
        <ele>104</ele>
        <time>2022-12-08T22:55:28Z</time>
      </trkpt>
      <trkpt lat="44.00463" lon="0.4327">
        <ele>102</ele>
        <time>2022-12-08T22:55:31Z</time>
      </trkpt>
      <trkpt lat="44.00454" lon="0.43304">
        <ele>99</ele>
        <time>2022-12-08T22:55:36Z</time>
      </trkpt>
      <trkpt lat="44.00404" lon="0.43579">
        <ele>94</ele>
        <time>2022-12-08T22:56:12Z</time>
      </trkpt>
      <trkpt lat="44.00451" lon="0.43586">
        <ele>94</ele>
        <time>2022-12-08T22:56:20Z</time>
      </trkpt>
      <trkpt lat="44.00479" lon="0.43585">
        <ele>94</ele>
        <time>2022-12-08T22:56:25Z</time>
      </trkpt>
      <trkpt lat="44.0052" lon="0.43578">
        <ele>94</ele>
        <time>2022-12-08T22:56:33Z</time>
      </trkpt>
      <trkpt lat="44.00642" lon="0.43528">
        <ele>94</ele>
        <time>2022-12-08T22:56:55Z</time>
      </trkpt>
      <trkpt lat="44.00666" lon="0.43523">
        <ele>94</ele>
        <time>2022-12-08T22:57:00Z</time>
      </trkpt>
      <trkpt lat="44.00686" lon="0.43524">
        <ele>94</ele>
        <time>2022-12-08T22:57:03Z</time>
      </trkpt>
      <trkpt lat="44.00704" lon="0.43531">
        <ele>94</ele>
        <time>2022-12-08T22:57:07Z</time>
      </trkpt>
      <trkpt lat="44.00718" lon="0.43546">
        <ele>94</ele>
        <time>2022-12-08T22:57:10Z</time>
      </trkpt>
      <trkpt lat="44.0073" lon="0.4357">
        <ele>93</ele>
        <time>2022-12-08T22:57:14Z</time>
      </trkpt>
      <trkpt lat="44.00741" lon="0.43607">
        <ele>93</ele>
        <time>2022-12-08T22:57:19Z</time>
      </trkpt>
      <trkpt lat="44.00743" lon="0.4362">
        <ele>93</ele>
        <time>2022-12-08T22:57:20Z</time>
      </trkpt>
      <trkpt lat="44.00745" lon="0.43631">
        <ele>92</ele>
        <time>2022-12-08T22:57:22Z</time>
      </trkpt>
      <trkpt lat="44.00754" lon="0.43679">
        <ele>92</ele>
        <time>2022-12-08T22:57:28Z</time>
      </trkpt>
      <trkpt lat="44.00763" lon="0.43714">
        <ele>93</ele>
        <time>2022-12-08T22:57:33Z</time>
      </trkpt>
      <trkpt lat="44.00776" lon="0.43744">
        <ele>93</ele>
        <time>2022-12-08T22:57:37Z</time>
      </trkpt>
      <trkpt lat="44.0079" lon="0.43767">
        <ele>93</ele>
        <time>2022-12-08T22:57:41Z</time>
      </trkpt>
      <trkpt lat="44.00778" lon="0.43855">
        <ele>96</ele>
        <time>2022-12-08T22:57:53Z</time>
      </trkpt>
      <trkpt lat="44.00768" lon="0.43899">
        <ele>100</ele>
        <time>2022-12-08T22:57:59Z</time>
      </trkpt>
      <trkpt lat="44.00757" lon="0.43927">
        <ele>102</ele>
        <time>2022-12-08T22:58:03Z</time>
      </trkpt>
      <trkpt lat="44.00724" lon="0.4396">
        <ele>106</ele>
        <time>2022-12-08T22:58:10Z</time>
      </trkpt>
      <trkpt lat="44.00638" lon="0.44031">
        <ele>108</ele>
        <time>2022-12-08T22:58:28Z</time>
      </trkpt>
      <trkpt lat="44.00596" lon="0.44081">
        <ele>111</ele>
        <time>2022-12-08T22:58:38Z</time>
      </trkpt>
      <trkpt lat="44.0057" lon="0.44125">
        <ele>113</ele>
        <time>2022-12-08T22:58:45Z</time>
      </trkpt>
      <trkpt lat="44.00555" lon="0.44164">
        <ele>115</ele>
        <time>2022-12-08T22:58:50Z</time>
      </trkpt>
      <trkpt lat="44.00551" lon="0.44197">
        <ele>116</ele>
        <time>2022-12-08T22:58:55Z</time>
      </trkpt>
      <trkpt lat="44.0056" lon="0.44235">
        <ele>119</ele>
        <time>2022-12-08T22:59:00Z</time>
      </trkpt>
      <trkpt lat="44.00574" lon="0.44276">
        <ele>122</ele>
        <time>2022-12-08T22:59:06Z</time>
      </trkpt>
      <trkpt lat="44.00586" lon="0.44405">
        <ele>127</ele>
        <time>2022-12-08T22:59:22Z</time>
      </trkpt>
      <trkpt lat="44.00608" lon="0.44493">
        <ele>129</ele>
        <time>2022-12-08T22:59:34Z</time>
      </trkpt>
      <trkpt lat="44.00627" lon="0.44579">
        <ele>132</ele>
        <time>2022-12-08T22:59:46Z</time>
      </trkpt>
      <trkpt lat="44.00636" lon="0.4465">
        <ele>136</ele>
        <time>2022-12-08T22:59:55Z</time>
      </trkpt>
      <trkpt lat="44.00638" lon="0.4468">
        <ele>137</ele>
        <time>2022-12-08T22:59:59Z</time>
      </trkpt>
      <trkpt lat="44.00632" lon="0.44712">
        <ele>139</ele>
        <time>2022-12-08T23:00:03Z</time>
      </trkpt>
      <trkpt lat="44.00589" lon="0.44829">
        <ele>143</ele>
        <time>2022-12-08T23:00:20Z</time>
      </trkpt>
      <trkpt lat="44.00577" lon="0.44879">
        <ele>144</ele>
        <time>2022-12-08T23:00:27Z</time>
      </trkpt>
      <trkpt lat="44.00569" lon="0.44957">
        <ele>146</ele>
        <time>2022-12-08T23:00:37Z</time>
      </trkpt>
      <trkpt lat="44.00573" lon="0.4502">
        <ele>150</ele>
        <time>2022-12-08T23:00:45Z</time>
      </trkpt>
      <trkpt lat="44.00587" lon="0.45084">
        <ele>153</ele>
        <time>2022-12-08T23:00:53Z</time>
      </trkpt>
      <trkpt lat="44.00674" lon="0.45259">
        <ele>162</ele>
        <time>2022-12-08T23:01:21Z</time>
      </trkpt>
      <trkpt lat="44.00767" lon="0.45437">
        <ele>171</ele>
        <time>2022-12-08T23:01:49Z</time>
      </trkpt>
      <trkpt lat="44.00778" lon="0.45445">
        <ele>171</ele>
        <time>2022-12-08T23:01:51Z</time>
      </trkpt>
      <trkpt lat="44.00774" lon="0.45462">
        <ele>172</ele>
        <time>2022-12-08T23:01:53Z</time>
      </trkpt>
      <trkpt lat="44.00771" lon="0.45492">
        <ele>172</ele>
        <time>2022-12-08T23:01:57Z</time>
      </trkpt>
      <trkpt lat="44.0077" lon="0.45519">
        <ele>172</ele>
        <time>2022-12-08T23:02:01Z</time>
      </trkpt>
      <trkpt lat="44.00791" lon="0.45673">
        <ele>170</ele>
        <time>2022-12-08T23:02:21Z</time>
      </trkpt>
      <trkpt lat="44.00797" lon="0.45679">
        <ele>170</ele>
        <time>2022-12-08T23:02:22Z</time>
      </trkpt>
      <trkpt lat="44.00849" lon="0.45756">
        <ele>172</ele>
        <time>2022-12-08T23:02:36Z</time>
      </trkpt>
      <trkpt lat="44.00882" lon="0.45797">
        <ele>171</ele>
        <time>2022-12-08T23:02:43Z</time>
      </trkpt>
      <trkpt lat="44.00907" lon="0.45838">
        <ele>171</ele>
        <time>2022-12-08T23:02:50Z</time>
      </trkpt>
      <trkpt lat="44.00932" lon="0.45898">
        <ele>172</ele>
        <time>2022-12-08T23:02:59Z</time>
      </trkpt>
      <trkpt lat="44.00959" lon="0.45938">
        <ele>173</ele>
        <time>2022-12-08T23:03:06Z</time>
      </trkpt>
      <trkpt lat="44.0097" lon="0.45959">
        <ele>174</ele>
        <time>2022-12-08T23:03:09Z</time>
      </trkpt>
      <trkpt lat="44.0099" lon="0.46014">
        <ele>177</ele>
        <time>2022-12-08T23:03:17Z</time>
      </trkpt>
      <trkpt lat="44.01008" lon="0.46057">
        <ele>178</ele>
        <time>2022-12-08T23:03:24Z</time>
      </trkpt>
      <trkpt lat="44.01028" lon="0.46095">
        <ele>179</ele>
        <time>2022-12-08T23:03:30Z</time>
      </trkpt>
      <trkpt lat="44.01064" lon="0.46154">
        <ele>178</ele>
        <time>2022-12-08T23:03:40Z</time>
      </trkpt>
      <trkpt lat="44.01079" lon="0.46174">
        <ele>176</ele>
        <time>2022-12-08T23:03:43Z</time>
      </trkpt>
      <trkpt lat="44.01086" lon="0.46177">
        <ele>176</ele>
        <time>2022-12-08T23:03:45Z</time>
      </trkpt>
      <trkpt lat="44.01089" lon="0.46208">
        <ele>175</ele>
        <time>2022-12-08T23:03:49Z</time>
      </trkpt>
      <trkpt lat="44.0109" lon="0.46238">
        <ele>175</ele>
        <time>2022-12-08T23:03:53Z</time>
      </trkpt>
      <trkpt lat="44.01096" lon="0.4626">
        <ele>173</ele>
        <time>2022-12-08T23:03:56Z</time>
      </trkpt>
      <trkpt lat="44.01121" lon="0.46306">
        <ele>167</ele>
        <time>2022-12-08T23:04:03Z</time>
      </trkpt>
      <trkpt lat="44.01185" lon="0.46432">
        <ele>158</ele>
        <time>2022-12-08T23:04:23Z</time>
      </trkpt>
      <trkpt lat="44.01201" lon="0.46459">
        <ele>156</ele>
        <time>2022-12-08T23:04:27Z</time>
      </trkpt>
      <trkpt lat="44.01207" lon="0.46477">
        <ele>156</ele>
        <time>2022-12-08T23:04:30Z</time>
      </trkpt>
      <trkpt lat="44.01212" lon="0.46507">
        <ele>154</ele>
        <time>2022-12-08T23:04:34Z</time>
      </trkpt>
      <trkpt lat="44.01218" lon="0.4658">
        <ele>146</ele>
        <time>2022-12-08T23:04:43Z</time>
      </trkpt>
      <trkpt lat="44.01226" lon="0.46628">
        <ele>141</ele>
        <time>2022-12-08T23:04:49Z</time>
      </trkpt>
      <trkpt lat="44.01233" lon="0.46663">
        <ele>137</ele>
        <time>2022-12-08T23:04:54Z</time>
      </trkpt>
      <trkpt lat="44.01268" lon="0.46788">
        <ele>127</ele>
        <time>2022-12-08T23:05:11Z</time>
      </trkpt>
      <trkpt lat="44.01277" lon="0.46816">
        <ele>125</ele>
        <time>2022-12-08T23:05:15Z</time>
      </trkpt>
      <trkpt lat="44.01302" lon="0.46868">
        <ele>124</ele>
        <time>2022-12-08T23:05:23Z</time>
      </trkpt>
      <trkpt lat="44.01317" lon="0.46889">
        <ele>124</ele>
        <time>2022-12-08T23:05:27Z</time>
      </trkpt>
      <trkpt lat="44.01333" lon="0.46907">
        <ele>124</ele>
        <time>2022-12-08T23:05:30Z</time>
      </trkpt>
      <trkpt lat="44.01353" lon="0.46925">
        <ele>126</ele>
        <time>2022-12-08T23:05:35Z</time>
      </trkpt>
      <trkpt lat="44.0141" lon="0.46965">
        <ele>132</ele>
        <time>2022-12-08T23:05:46Z</time>
      </trkpt>
      <trkpt lat="44.01433" lon="0.46984">
        <ele>134</ele>
        <time>2022-12-08T23:05:51Z</time>
      </trkpt>
      <trkpt lat="44.01457" lon="0.47008">
        <ele>137</ele>
        <time>2022-12-08T23:05:56Z</time>
      </trkpt>
      <trkpt lat="44.01532" lon="0.47097">
        <ele>140</ele>
        <time>2022-12-08T23:06:14Z</time>
      </trkpt>
      <trkpt lat="44.01543" lon="0.47114">
        <ele>139</ele>
        <time>2022-12-08T23:06:17Z</time>
      </trkpt>
      <trkpt lat="44.0155" lon="0.47137">
        <ele>140</ele>
        <time>2022-12-08T23:06:20Z</time>
      </trkpt>
      <trkpt lat="44.01551" lon="0.47156">
        <ele>140</ele>
        <time>2022-12-08T23:06:22Z</time>
      </trkpt>
      <trkpt lat="44.0155" lon="0.47176">
        <ele>141</ele>
        <time>2022-12-08T23:06:25Z</time>
      </trkpt>
      <trkpt lat="44.01542" lon="0.47229">
        <ele>141</ele>
        <time>2022-12-08T23:06:32Z</time>
      </trkpt>
      <trkpt lat="44.01543" lon="0.47243">
        <ele>141</ele>
        <time>2022-12-08T23:06:34Z</time>
      </trkpt>
      <trkpt lat="44.01551" lon="0.47264">
        <ele>139</ele>
        <time>2022-12-08T23:06:37Z</time>
      </trkpt>
      <trkpt lat="44.01577" lon="0.47308">
        <ele>134</ele>
        <time>2022-12-08T23:06:44Z</time>
      </trkpt>
      <trkpt lat="44.01589" lon="0.47323">
        <ele>132</ele>
        <time>2022-12-08T23:06:47Z</time>
      </trkpt>
      <trkpt lat="44.01605" lon="0.47335">
        <ele>131</ele>
        <time>2022-12-08T23:06:50Z</time>
      </trkpt>
      <trkpt lat="44.01625" lon="0.47346">
        <ele>130</ele>
        <time>2022-12-08T23:06:54Z</time>
      </trkpt>
      <trkpt lat="44.0166" lon="0.47361">
        <ele>128</ele>
        <time>2022-12-08T23:07:00Z</time>
      </trkpt>
      <trkpt lat="44.01672" lon="0.47368">
        <ele>128</ele>
        <time>2022-12-08T23:07:03Z</time>
      </trkpt>
      <trkpt lat="44.01697" lon="0.47392">
        <ele>126</ele>
        <time>2022-12-08T23:07:08Z</time>
      </trkpt>
      <trkpt lat="44.01752" lon="0.4744">
        <ele>122</ele>
        <time>2022-12-08T23:07:20Z</time>
      </trkpt>
      <trkpt lat="44.01762" lon="0.47451">
        <ele>122</ele>
        <time>2022-12-08T23:07:22Z</time>
      </trkpt>
      <trkpt lat="44.01767" lon="0.47468">
        <ele>122</ele>
        <time>2022-12-08T23:07:24Z</time>
      </trkpt>
      <trkpt lat="44.01766" lon="0.47491">
        <ele>122</ele>
        <time>2022-12-08T23:07:27Z</time>
      </trkpt>
      <trkpt lat="44.01755" lon="0.47541">
        <ele>122</ele>
        <time>2022-12-08T23:07:34Z</time>
      </trkpt>
      <trkpt lat="44.0175" lon="0.4757">
        <ele>122</ele>
        <time>2022-12-08T23:07:38Z</time>
      </trkpt>
      <trkpt lat="44.01751" lon="0.47606">
        <ele>122</ele>
        <time>2022-12-08T23:07:42Z</time>
      </trkpt>
      <trkpt lat="44.01754" lon="0.47643">
        <ele>123</ele>
        <time>2022-12-08T23:07:47Z</time>
      </trkpt>
      <trkpt lat="44.01759" lon="0.47669">
        <ele>124</ele>
        <time>2022-12-08T23:07:50Z</time>
      </trkpt>
      <trkpt lat="44.01769" lon="0.47684">
        <ele>125</ele>
        <time>2022-12-08T23:07:53Z</time>
      </trkpt>
      <trkpt lat="44.01789" lon="0.47709">
        <ele>127</ele>
        <time>2022-12-08T23:07:58Z</time>
      </trkpt>
      <trkpt lat="44.01797" lon="0.47729">
        <ele>128</ele>
        <time>2022-12-08T23:08:01Z</time>
      </trkpt>
      <trkpt lat="44.01805" lon="0.47761">
        <ele>130</ele>
        <time>2022-12-08T23:08:05Z</time>
      </trkpt>
      <trkpt lat="44.01815" lon="0.4783">
        <ele>134</ele>
        <time>2022-12-08T23:08:14Z</time>
      </trkpt>
      <trkpt lat="44.01828" lon="0.47952">
        <ele>141</ele>
        <time>2022-12-08T23:08:30Z</time>
      </trkpt>
      <trkpt lat="44.01847" lon="0.48074">
        <ele>150</ele>
        <time>2022-12-08T23:08:46Z</time>
      </trkpt>
      <trkpt lat="44.01868" lon="0.48162">
        <ele>155</ele>
        <time>2022-12-08T23:08:58Z</time>
      </trkpt>
      <trkpt lat="44.01875" lon="0.48177">
        <ele>156</ele>
        <time>2022-12-08T23:09:00Z</time>
      </trkpt>
      <trkpt lat="44.01886" lon="0.48191">
        <ele>158</ele>
        <time>2022-12-08T23:09:03Z</time>
      </trkpt>
      <trkpt lat="44.01961" lon="0.48235">
        <ele>162</ele>
        <time>2022-12-08T23:09:17Z</time>
      </trkpt>
      <trkpt lat="44.01971" lon="0.48243">
        <ele>162</ele>
        <time>2022-12-08T23:09:19Z</time>
      </trkpt>
      <trkpt lat="44.01978" lon="0.48255">
        <ele>162</ele>
        <time>2022-12-08T23:09:21Z</time>
      </trkpt>
      <trkpt lat="44.01979" lon="0.48271">
        <ele>162</ele>
        <time>2022-12-08T23:09:23Z</time>
      </trkpt>
      <trkpt lat="44.01976" lon="0.48302">
        <ele>162</ele>
        <time>2022-12-08T23:09:27Z</time>
      </trkpt>
      <trkpt lat="44.01968" lon="0.48345">
        <ele>163</ele>
        <time>2022-12-08T23:09:33Z</time>
      </trkpt>
      <trkpt lat="44.01959" lon="0.48382">
        <ele>163</ele>
        <time>2022-12-08T23:09:38Z</time>
      </trkpt>
      <trkpt lat="44.01954" lon="0.48412">
        <ele>163</ele>
        <time>2022-12-08T23:09:42Z</time>
      </trkpt>
      <trkpt lat="44.01953" lon="0.48441">
        <ele>163</ele>
        <time>2022-12-08T23:09:46Z</time>
      </trkpt>
      <trkpt lat="44.01955" lon="0.48468">
        <ele>163</ele>
        <time>2022-12-08T23:09:49Z</time>
      </trkpt>
      <trkpt lat="44.01962" lon="0.48515">
        <ele>164</ele>
        <time>2022-12-08T23:09:55Z</time>
      </trkpt>
      <trkpt lat="44.01963" lon="0.48546">
        <ele>165</ele>
        <time>2022-12-08T23:09:59Z</time>
      </trkpt>
      <trkpt lat="44.01962" lon="0.48619">
        <ele>168</ele>
        <time>2022-12-08T23:10:09Z</time>
      </trkpt>
      <trkpt lat="44.01958" lon="0.48674">
        <ele>170</ele>
        <time>2022-12-08T23:10:16Z</time>
      </trkpt>
      <trkpt lat="44.01935" lon="0.48833">
        <ele>174</ele>
        <time>2022-12-08T23:10:36Z</time>
      </trkpt>
      <trkpt lat="44.0193" lon="0.48884">
        <ele>175</ele>
        <time>2022-12-08T23:10:43Z</time>
      </trkpt>
      <trkpt lat="44.01962" lon="0.48873">
        <ele>175</ele>
        <time>2022-12-08T23:10:49Z</time>
      </trkpt>
      <trkpt lat="44.02021" lon="0.48877">
        <ele>174</ele>
        <time>2022-12-08T23:10:59Z</time>
      </trkpt>
      <trkpt lat="44.02061" lon="0.48876">
        <ele>173</ele>
        <time>2022-12-08T23:11:06Z</time>
      </trkpt>
      <trkpt lat="44.02162" lon="0.48857">
        <ele>170</ele>
        <time>2022-12-08T23:11:25Z</time>
      </trkpt>
      <trkpt lat="44.022" lon="0.48859">
        <ele>169</ele>
        <time>2022-12-08T23:11:31Z</time>
      </trkpt>
      <trkpt lat="44.02317" lon="0.48874">
        <ele>167</ele>
        <time>2022-12-08T23:11:52Z</time>
      </trkpt>
      <trkpt lat="44.02424" lon="0.48905">
        <ele>169</ele>
        <time>2022-12-08T23:12:12Z</time>
      </trkpt>
      <trkpt lat="44.02463" lon="0.48935">
        <ele>169</ele>
        <time>2022-12-08T23:12:20Z</time>
      </trkpt>
      <trkpt lat="44.02504" lon="0.48958">
        <ele>169</ele>
        <time>2022-12-08T23:12:27Z</time>
      </trkpt>
      <trkpt lat="44.02562" lon="0.48986">
        <ele>173</ele>
        <time>2022-12-08T23:12:38Z</time>
      </trkpt>
      <trkpt lat="44.02582" lon="0.49">
        <ele>175</ele>
        <time>2022-12-08T23:12:42Z</time>
      </trkpt>
      <trkpt lat="44.02598" lon="0.49018">
        <ele>176</ele>
        <time>2022-12-08T23:12:46Z</time>
      </trkpt>
      <trkpt lat="44.02618" lon="0.49061">
        <ele>177</ele>
        <time>2022-12-08T23:12:53Z</time>
      </trkpt>
      <trkpt lat="44.02638" lon="0.49125">
        <ele>179</ele>
        <time>2022-12-08T23:13:02Z</time>
      </trkpt>
      <trkpt lat="44.02657" lon="0.49164">
        <ele>180</ele>
        <time>2022-12-08T23:13:08Z</time>
      </trkpt>
      <trkpt lat="44.02672" lon="0.49178">
        <ele>180</ele>
        <time>2022-12-08T23:13:11Z</time>
      </trkpt>
      <trkpt lat="44.02685" lon="0.49183">
        <ele>179</ele>
        <time>2022-12-08T23:13:13Z</time>
      </trkpt>
      <trkpt lat="44.02692" lon="0.49184">
        <ele>178</ele>
        <time>2022-12-08T23:13:14Z</time>
      </trkpt>
      <trkpt lat="44.0271" lon="0.49175">
        <ele>177</ele>
        <time>2022-12-08T23:13:18Z</time>
      </trkpt>
      <trkpt lat="44.02807" lon="0.49098">
        <ele>169</ele>
        <time>2022-12-08T23:13:38Z</time>
      </trkpt>
      <trkpt lat="44.02849" lon="0.49083">
        <ele>166</ele>
        <time>2022-12-08T23:13:45Z</time>
      </trkpt>
      <trkpt lat="44.02871" lon="0.49084">
        <ele>165</ele>
        <time>2022-12-08T23:13:49Z</time>
      </trkpt>
      <trkpt lat="44.02921" lon="0.49093">
        <ele>162</ele>
        <time>2022-12-08T23:13:58Z</time>
      </trkpt>
      <trkpt lat="44.02943" lon="0.49106">
        <ele>161</ele>
        <time>2022-12-08T23:14:03Z</time>
      </trkpt>
      <trkpt lat="44.02911" lon="0.49113">
        <ele>161</ele>
        <time>2022-12-08T23:14:08Z</time>
      </trkpt>
      <trkpt lat="44.02898" lon="0.4912">
        <ele>161</ele>
        <time>2022-12-08T23:14:11Z</time>
      </trkpt>
      <trkpt lat="44.02883" lon="0.49136">
        <ele>161</ele>
        <time>2022-12-08T23:14:14Z</time>
      </trkpt>
      <trkpt lat="44.02828" lon="0.4931">
        <ele>155</ele>
        <time>2022-12-08T23:14:38Z</time>
      </trkpt>
      <trkpt lat="44.02805" lon="0.49393">
        <ele>156</ele>
        <time>2022-12-08T23:14:50Z</time>
      </trkpt>
      <trkpt lat="44.02807" lon="0.49447">
        <ele>153</ele>
        <time>2022-12-08T23:14:57Z</time>
      </trkpt>
      <trkpt lat="44.02904" lon="0.49948">
        <ele>142</ele>
        <time>2022-12-08T23:16:03Z</time>
      </trkpt>
      <trkpt lat="44.02911" lon="0.50247">
        <ele>132</ele>
        <time>2022-12-08T23:16:41Z</time>
      </trkpt>
      <trkpt lat="44.02882" lon="0.50435">
        <ele>129</ele>
        <time>2022-12-08T23:17:06Z</time>
      </trkpt>
      <trkpt lat="44.02868" lon="0.50532">
        <ele>127</ele>
        <time>2022-12-08T23:17:19Z</time>
      </trkpt>
      <trkpt lat="44.02854" lon="0.50568">
        <ele>126</ele>
        <time>2022-12-08T23:17:24Z</time>
      </trkpt>
      <trkpt lat="44.02832" lon="0.50636">
        <ele>124</ele>
        <time>2022-12-08T23:17:33Z</time>
      </trkpt>
      <trkpt lat="44.02786" lon="0.50702">
        <ele>123</ele>
        <time>2022-12-08T23:17:45Z</time>
      </trkpt>
      <trkpt lat="44.02758" lon="0.50732">
        <ele>122</ele>
        <time>2022-12-08T23:17:51Z</time>
      </trkpt>
      <trkpt lat="44.02745" lon="0.50776">
        <ele>118</ele>
        <time>2022-12-08T23:17:58Z</time>
      </trkpt>
      <trkpt lat="44.02728" lon="0.5085">
        <ele>112</ele>
        <time>2022-12-08T23:18:08Z</time>
      </trkpt>
      <trkpt lat="44.02527" lon="0.51906">
        <ele>148</ele>
        <time>2022-12-08T23:20:27Z</time>
      </trkpt>
      <trkpt lat="44.02494" lon="0.52088">
        <ele>150</ele>
        <time>2022-12-08T23:20:51Z</time>
      </trkpt>
      <trkpt lat="44.02481" lon="0.52141">
        <ele>152</ele>
        <time>2022-12-08T23:20:58Z</time>
      </trkpt>
      <trkpt lat="44.0242" lon="0.52362">
        <ele>157</ele>
        <time>2022-12-08T23:21:29Z</time>
      </trkpt>
      <trkpt lat="44.02388" lon="0.52581">
        <ele>163</ele>
        <time>2022-12-08T23:21:57Z</time>
      </trkpt>
      <trkpt lat="44.02381" lon="0.52687">
        <ele>163</ele>
        <time>2022-12-08T23:22:11Z</time>
      </trkpt>
      <trkpt lat="44.02376" lon="0.52729">
        <ele>164</ele>
        <time>2022-12-08T23:22:16Z</time>
      </trkpt>
      <trkpt lat="44.02368" lon="0.52766">
        <ele>165</ele>
        <time>2022-12-08T23:22:21Z</time>
      </trkpt>
      <trkpt lat="44.02361" lon="0.52789">
        <ele>165</ele>
        <time>2022-12-08T23:22:25Z</time>
      </trkpt>
      <trkpt lat="44.02324" lon="0.52882">
        <ele>168</ele>
        <time>2022-12-08T23:22:38Z</time>
      </trkpt>
      <trkpt lat="44.02309" lon="0.52916">
        <ele>169</ele>
        <time>2022-12-08T23:22:43Z</time>
      </trkpt>
      <trkpt lat="44.02274" lon="0.52965">
        <ele>171</ele>
        <time>2022-12-08T23:22:52Z</time>
      </trkpt>
      <trkpt lat="44.02148" lon="0.53118">
        <ele>179</ele>
        <time>2022-12-08T23:23:22Z</time>
      </trkpt>
      <trkpt lat="44.02127" lon="0.53152">
        <ele>179</ele>
        <time>2022-12-08T23:23:28Z</time>
      </trkpt>
      <trkpt lat="44.02114" lon="0.53179">
        <ele>180</ele>
        <time>2022-12-08T23:23:32Z</time>
      </trkpt>
      <trkpt lat="44.02107" lon="0.53213">
        <ele>182</ele>
        <time>2022-12-08T23:23:36Z</time>
      </trkpt>
      <trkpt lat="44.0207" lon="0.5357">
        <ele>185</ele>
        <time>2022-12-08T23:24:22Z</time>
      </trkpt>
      <trkpt lat="44.02059" lon="0.53613">
        <ele>186</ele>
        <time>2022-12-08T23:24:28Z</time>
      </trkpt>
      <trkpt lat="44.01965" lon="0.53803">
        <ele>190</ele>
        <time>2022-12-08T23:24:58Z</time>
      </trkpt>
      <trkpt lat="44.01907" lon="0.53913">
        <ele>192</ele>
        <time>2022-12-08T23:25:15Z</time>
      </trkpt>
      <trkpt lat="44.02219" lon="0.5438">
        <ele>189</ele>
        <time>2022-12-08T23:26:37Z</time>
      </trkpt>
      <trkpt lat="44.02245" lon="0.54407">
        <ele>189</ele>
        <time>2022-12-08T23:26:43Z</time>
      </trkpt>
      <trkpt lat="44.0227" lon="0.54419">
        <ele>189</ele>
        <time>2022-12-08T23:26:47Z</time>
      </trkpt>
      <trkpt lat="44.02552" lon="0.5453">
        <ele>195</ele>
        <time>2022-12-08T23:27:39Z</time>
      </trkpt>
      <trkpt lat="44.02664" lon="0.5457">
        <ele>200</ele>
        <time>2022-12-08T23:28:00Z</time>
      </trkpt>
      <trkpt lat="44.02692" lon="0.54576">
        <ele>200</ele>
        <time>2022-12-08T23:28:05Z</time>
      </trkpt>
      <trkpt lat="44.0272" lon="0.54576">
        <ele>200</ele>
        <time>2022-12-08T23:28:10Z</time>
      </trkpt>
      <trkpt lat="44.02867" lon="0.54548">
        <ele>201</ele>
        <time>2022-12-08T23:28:36Z</time>
      </trkpt>
      <trkpt lat="44.02898" lon="0.54539">
        <ele>201</ele>
        <time>2022-12-08T23:28:42Z</time>
      </trkpt>
      <trkpt lat="44.0292" lon="0.54537">
        <ele>201</ele>
        <time>2022-12-08T23:28:46Z</time>
      </trkpt>
      <trkpt lat="44.02946" lon="0.54537">
        <ele>202</ele>
        <time>2022-12-08T23:28:51Z</time>
      </trkpt>
      <trkpt lat="44.0316" lon="0.54596">
        <ele>196</ele>
        <time>2022-12-08T23:29:29Z</time>
      </trkpt>
      <trkpt lat="44.03203" lon="0.54619">
        <ele>194</ele>
        <time>2022-12-08T23:29:38Z</time>
      </trkpt>
      <trkpt lat="44.03248" lon="0.54649">
        <ele>194</ele>
        <time>2022-12-08T23:29:46Z</time>
      </trkpt>
      <trkpt lat="44.03284" lon="0.5467">
        <ele>194</ele>
        <time>2022-12-08T23:29:53Z</time>
      </trkpt>
      <trkpt lat="44.03337" lon="0.54706">
        <ele>193</ele>
        <time>2022-12-08T23:30:04Z</time>
      </trkpt>
      <trkpt lat="44.03371" lon="0.54722">
        <ele>193</ele>
        <time>2022-12-08T23:30:10Z</time>
      </trkpt>
      <trkpt lat="44.03421" lon="0.54725">
        <ele>192</ele>
        <time>2022-12-08T23:30:19Z</time>
      </trkpt>
      <trkpt lat="44.03492" lon="0.54698">
        <ele>191</ele>
        <time>2022-12-08T23:30:32Z</time>
      </trkpt>
      <trkpt lat="44.03584" lon="0.5465">
        <ele>191</ele>
        <time>2022-12-08T23:30:50Z</time>
      </trkpt>
      <trkpt lat="44.03649" lon="0.54622">
        <ele>191</ele>
        <time>2022-12-08T23:31:02Z</time>
      </trkpt>
      <trkpt lat="44.03665" lon="0.54618">
        <ele>192</ele>
        <time>2022-12-08T23:31:05Z</time>
      </trkpt>
      <trkpt lat="44.03757" lon="0.54613">
        <ele>189</ele>
        <time>2022-12-08T23:31:21Z</time>
      </trkpt>
      <trkpt lat="44.03837" lon="0.54622">
        <ele>188</ele>
        <time>2022-12-08T23:31:35Z</time>
      </trkpt>
      <trkpt lat="44.0389" lon="0.54654">
        <ele>188</ele>
        <time>2022-12-08T23:31:46Z</time>
      </trkpt>
      <trkpt lat="44.03941" lon="0.54697">
        <ele>186</ele>
        <time>2022-12-08T23:31:56Z</time>
      </trkpt>
      <trkpt lat="44.04048" lon="0.54763">
        <ele>184</ele>
        <time>2022-12-08T23:32:17Z</time>
      </trkpt>
      <trkpt lat="44.04152" lon="0.54855">
        <ele>184</ele>
        <time>2022-12-08T23:32:39Z</time>
      </trkpt>
      <trkpt lat="44.04185" lon="0.54878">
        <ele>183</ele>
        <time>2022-12-08T23:32:46Z</time>
      </trkpt>
      <trkpt lat="44.04346" lon="0.54923">
        <ele>178</ele>
        <time>2022-12-08T23:33:15Z</time>
      </trkpt>
      <trkpt lat="44.04402" lon="0.5495">
        <ele>175</ele>
        <time>2022-12-08T23:33:25Z</time>
      </trkpt>
      <trkpt lat="44.04432" lon="0.54981">
        <ele>172</ele>
        <time>2022-12-08T23:33:32Z</time>
      </trkpt>
      <trkpt lat="44.04483" lon="0.55069">
        <ele>165</ele>
        <time>2022-12-08T23:33:47Z</time>
      </trkpt>
      <trkpt lat="44.04514" lon="0.55111">
        <ele>163</ele>
        <time>2022-12-08T23:33:54Z</time>
      </trkpt>
      <trkpt lat="44.04542" lon="0.55131">
        <ele>163</ele>
        <time>2022-12-08T23:34:00Z</time>
      </trkpt>
      <trkpt lat="44.04593" lon="0.55128">
        <ele>164</ele>
        <time>2022-12-08T23:34:09Z</time>
      </trkpt>
      <trkpt lat="44.04668" lon="0.55111">
        <ele>165</ele>
        <time>2022-12-08T23:34:22Z</time>
      </trkpt>
      <trkpt lat="44.04849" lon="0.55111">
        <ele>176</ele>
        <time>2022-12-08T23:34:55Z</time>
      </trkpt>
      <trkpt lat="44.04898" lon="0.55092">
        <ele>179</ele>
        <time>2022-12-08T23:35:04Z</time>
      </trkpt>
      <trkpt lat="44.04918" lon="0.55087">
        <ele>180</ele>
        <time>2022-12-08T23:35:07Z</time>
      </trkpt>
      <trkpt lat="44.04949" lon="0.55085">
        <ele>180</ele>
        <time>2022-12-08T23:35:13Z</time>
      </trkpt>
      <trkpt lat="44.05025" lon="0.55108">
        <ele>177</ele>
        <time>2022-12-08T23:35:27Z</time>
      </trkpt>
      <trkpt lat="44.05133" lon="0.55144">
        <ele>171</ele>
        <time>2022-12-08T23:35:46Z</time>
      </trkpt>
      <trkpt lat="44.05168" lon="0.5516">
        <ele>169</ele>
        <time>2022-12-08T23:35:53Z</time>
      </trkpt>
      <trkpt lat="44.05198" lon="0.55184">
        <ele>167</ele>
        <time>2022-12-08T23:35:59Z</time>
      </trkpt>
      <trkpt lat="44.0524" lon="0.55229">
        <ele>166</ele>
        <time>2022-12-08T23:36:09Z</time>
      </trkpt>
      <trkpt lat="44.05272" lon="0.55268">
        <ele>168</ele>
        <time>2022-12-08T23:36:16Z</time>
      </trkpt>
      <trkpt lat="44.05296" lon="0.55304">
        <ele>170</ele>
        <time>2022-12-08T23:36:22Z</time>
      </trkpt>
      <trkpt lat="44.05387" lon="0.55463">
        <ele>170</ele>
        <time>2022-12-08T23:36:48Z</time>
      </trkpt>
      <trkpt lat="44.05398" lon="0.55478">
        <ele>170</ele>
        <time>2022-12-08T23:36:51Z</time>
      </trkpt>
      <trkpt lat="44.05412" lon="0.55493">
        <ele>170</ele>
        <time>2022-12-08T23:36:54Z</time>
      </trkpt>
      <trkpt lat="44.05743" lon="0.55737">
        <ele>180</ele>
        <time>2022-12-08T23:38:01Z</time>
      </trkpt>
      <trkpt lat="44.05758" lon="0.55753">
        <ele>180</ele>
        <time>2022-12-08T23:38:04Z</time>
      </trkpt>
      <trkpt lat="44.05799" lon="0.55815">
        <ele>181</ele>
        <time>2022-12-08T23:38:15Z</time>
      </trkpt>
      <trkpt lat="44.05817" lon="0.55851">
        <ele>181</ele>
        <time>2022-12-08T23:38:21Z</time>
      </trkpt>
      <trkpt lat="44.05824" lon="0.55871">
        <ele>181</ele>
        <time>2022-12-08T23:38:24Z</time>
      </trkpt>
      <trkpt lat="44.05843" lon="0.55945">
        <ele>180</ele>
        <time>2022-12-08T23:38:34Z</time>
      </trkpt>
      <trkpt lat="44.0586" lon="0.56025">
        <ele>179</ele>
        <time>2022-12-08T23:38:44Z</time>
      </trkpt>
      <trkpt lat="44.05865" lon="0.56059">
        <ele>179</ele>
        <time>2022-12-08T23:38:49Z</time>
      </trkpt>
      <trkpt lat="44.05884" lon="0.56283">
        <ele>178</ele>
        <time>2022-12-08T23:39:17Z</time>
      </trkpt>
      <trkpt lat="44.05902" lon="0.56393">
        <ele>178</ele>
        <time>2022-12-08T23:39:32Z</time>
      </trkpt>
      <trkpt lat="44.05918" lon="0.56478">
        <ele>178</ele>
        <time>2022-12-08T23:39:43Z</time>
      </trkpt>
      <trkpt lat="44.05922" lon="0.5649">
        <ele>178</ele>
        <time>2022-12-08T23:39:45Z</time>
      </trkpt>
      <trkpt lat="44.0593" lon="0.56509">
        <ele>177</ele>
        <time>2022-12-08T23:39:48Z</time>
      </trkpt>
      <trkpt lat="44.05952" lon="0.56553">
        <ele>176</ele>
        <time>2022-12-08T23:39:55Z</time>
      </trkpt>
      <trkpt lat="44.05993" lon="0.56629">
        <ele>174</ele>
        <time>2022-12-08T23:40:07Z</time>
      </trkpt>
      <trkpt lat="44.06251" lon="0.57128">
        <ele>171</ele>
        <time>2022-12-08T23:41:25Z</time>
      </trkpt>
      <trkpt lat="44.06256" lon="0.57145">
        <ele>171</ele>
        <time>2022-12-08T23:41:28Z</time>
      </trkpt>
      <trkpt lat="44.06259" lon="0.57164">
        <ele>171</ele>
        <time>2022-12-08T23:41:30Z</time>
      </trkpt>
      <trkpt lat="44.06259" lon="0.57182">
        <ele>171</ele>
        <time>2022-12-08T23:41:32Z</time>
      </trkpt>
      <trkpt lat="44.06256" lon="0.57211">
        <ele>171</ele>
        <time>2022-12-08T23:41:36Z</time>
      </trkpt>
      <trkpt lat="44.0618" lon="0.577">
        <ele>178</ele>
        <time>2022-12-08T23:42:40Z</time>
      </trkpt>
      <trkpt lat="44.06168" lon="0.57767">
        <ele>178</ele>
        <time>2022-12-08T23:42:49Z</time>
      </trkpt>
      <trkpt lat="44.06134" lon="0.57925">
        <ele>170</ele>
        <time>2022-12-08T23:43:10Z</time>
      </trkpt>
      <trkpt lat="44.06112" lon="0.58009">
        <ele>168</ele>
        <time>2022-12-08T23:43:21Z</time>
      </trkpt>
      <trkpt lat="44.06105" lon="0.58033">
        <ele>169</ele>
        <time>2022-12-08T23:43:25Z</time>
      </trkpt>
      <trkpt lat="44.06086" lon="0.58082">
        <ele>170</ele>
        <time>2022-12-08T23:43:32Z</time>
      </trkpt>
      <trkpt lat="44.06038" lon="0.58203">
        <ele>165</ele>
        <time>2022-12-08T23:43:50Z</time>
      </trkpt>
      <trkpt lat="44.05961" lon="0.58414">
        <ele>159</ele>
        <time>2022-12-08T23:44:20Z</time>
      </trkpt>
      <trkpt lat="44.05952" lon="0.58446">
        <ele>157</ele>
        <time>2022-12-08T23:44:24Z</time>
      </trkpt>
      <trkpt lat="44.05945" lon="0.58463">
        <ele>156</ele>
        <time>2022-12-08T23:44:27Z</time>
      </trkpt>
      <trkpt lat="44.05928" lon="0.58496">
        <ele>155</ele>
        <time>2022-12-08T23:44:32Z</time>
      </trkpt>
      <trkpt lat="44.059" lon="0.58569">
        <ele>154</ele>
        <time>2022-12-08T23:44:42Z</time>
      </trkpt>
      <trkpt lat="44.0587" lon="0.58651">
        <ele>152</ele>
        <time>2022-12-08T23:44:54Z</time>
      </trkpt>
      <trkpt lat="44.0587" lon="0.58669">
        <ele>152</ele>
        <time>2022-12-08T23:44:57Z</time>
      </trkpt>
      <trkpt lat="44.05872" lon="0.58682">
        <ele>152</ele>
        <time>2022-12-08T23:44:58Z</time>
      </trkpt>
      <trkpt lat="44.0586" lon="0.58681">
        <ele>153</ele>
        <time>2022-12-08T23:45:00Z</time>
      </trkpt>
      <trkpt lat="44.05837" lon="0.58663">
        <ele>153</ele>
        <time>2022-12-08T23:45:05Z</time>
      </trkpt>
      <trkpt lat="44.05826" lon="0.58693">
        <ele>153</ele>
        <time>2022-12-08T23:45:09Z</time>
      </trkpt>
      <trkpt lat="44.05837" lon="0.58663">
        <ele>153</ele>
        <time>2022-12-08T23:45:14Z</time>
      </trkpt>
      <trkpt lat="44.0586" lon="0.58681">
        <ele>153</ele>
        <time>2022-12-08T23:45:18Z</time>
      </trkpt>
      <trkpt lat="44.05872" lon="0.58682">
        <ele>152</ele>
        <time>2022-12-08T23:45:21Z</time>
      </trkpt>
      <trkpt lat="44.0588" lon="0.58697">
        <ele>152</ele>
        <time>2022-12-08T23:45:23Z</time>
      </trkpt>
      <trkpt lat="44.05914" lon="0.58743">
        <ele>152</ele>
        <time>2022-12-08T23:45:31Z</time>
      </trkpt>
      <trkpt lat="44.05918" lon="0.58754">
        <ele>152</ele>
        <time>2022-12-08T23:45:33Z</time>
      </trkpt>
      <trkpt lat="44.05929" lon="0.58818">
        <ele>150</ele>
        <time>2022-12-08T23:45:41Z</time>
      </trkpt>
      <trkpt lat="44.05951" lon="0.58982">
        <ele>147</ele>
        <time>2022-12-08T23:46:03Z</time>
      </trkpt>
      <trkpt lat="44.05956" lon="0.59037">
        <ele>146</ele>
        <time>2022-12-08T23:46:10Z</time>
      </trkpt>
      <trkpt lat="44.05932" lon="0.59376">
        <ele>143</ele>
        <time>2022-12-08T23:46:53Z</time>
      </trkpt>
      <trkpt lat="44.05926" lon="0.59413">
        <ele>143</ele>
        <time>2022-12-08T23:46:58Z</time>
      </trkpt>
      <trkpt lat="44.05912" lon="0.59452">
        <ele>142</ele>
        <time>2022-12-08T23:47:04Z</time>
      </trkpt>
      <trkpt lat="44.05891" lon="0.59496">
        <ele>140</ele>
        <time>2022-12-08T23:47:11Z</time>
      </trkpt>
      <trkpt lat="44.05861" lon="0.59575">
        <ele>138</ele>
        <time>2022-12-08T23:47:22Z</time>
      </trkpt>
      <trkpt lat="44.05699" lon="0.60037">
        <ele>144</ele>
        <time>2022-12-08T23:48:28Z</time>
      </trkpt>
      <trkpt lat="44.05641" lon="0.60267">
        <ele>141</ele>
        <time>2022-12-08T23:48:59Z</time>
      </trkpt>
      <trkpt lat="44.05633" lon="0.60323">
        <ele>140</ele>
        <time>2022-12-08T23:49:06Z</time>
      </trkpt>
      <trkpt lat="44.05607" lon="0.60605">
        <ele>140</ele>
        <time>2022-12-08T23:49:42Z</time>
      </trkpt>
      <trkpt lat="44.05605" lon="0.60702">
        <ele>142</ele>
        <time>2022-12-08T23:49:55Z</time>
      </trkpt>
      <trkpt lat="44.05615" lon="0.60783">
        <ele>142</ele>
        <time>2022-12-08T23:50:05Z</time>
      </trkpt>
      <trkpt lat="44.05625" lon="0.60843">
        <ele>141</ele>
        <time>2022-12-08T23:50:13Z</time>
      </trkpt>
      <trkpt lat="44.05652" lon="0.61129">
        <ele>135</ele>
        <time>2022-12-08T23:50:50Z</time>
      </trkpt>
      <trkpt lat="44.05735" lon="0.61468">
        <ele>122</ele>
        <time>2022-12-08T23:51:36Z</time>
      </trkpt>
      <trkpt lat="44.05739" lon="0.61498">
        <ele>122</ele>
        <time>2022-12-08T23:51:40Z</time>
      </trkpt>
      <trkpt lat="44.05738" lon="0.61533">
        <ele>122</ele>
        <time>2022-12-08T23:51:44Z</time>
      </trkpt>
      <trkpt lat="44.05707" lon="0.61724">
        <ele>117</ele>
        <time>2022-12-08T23:52:09Z</time>
      </trkpt>
      <trkpt lat="44.05706" lon="0.61756">
        <ele>116</ele>
        <time>2022-12-08T23:52:13Z</time>
      </trkpt>
      <trkpt lat="44.05708" lon="0.61797">
        <ele>114</ele>
        <time>2022-12-08T23:52:19Z</time>
      </trkpt>
      <trkpt lat="44.05741" lon="0.62043">
        <ele>108</ele>
        <time>2022-12-08T23:52:51Z</time>
      </trkpt>
      <trkpt lat="44.0574" lon="0.62109">
        <ele>108</ele>
        <time>2022-12-08T23:52:59Z</time>
      </trkpt>
      <trkpt lat="44.05712" lon="0.62509">
        <ele>98</ele>
        <time>2022-12-08T23:53:51Z</time>
      </trkpt>
      <trkpt lat="44.05688" lon="0.62624">
        <ele>96</ele>
        <time>2022-12-08T23:54:06Z</time>
      </trkpt>
      <trkpt lat="44.05687" lon="0.62727">
        <ele>90</ele>
        <time>2022-12-08T23:54:19Z</time>
      </trkpt>
      <trkpt lat="44.0568" lon="0.62772">
        <ele>88</ele>
        <time>2022-12-08T23:54:25Z</time>
      </trkpt>
      <trkpt lat="44.05664" lon="0.62812">
        <ele>86</ele>
        <time>2022-12-08T23:54:31Z</time>
      </trkpt>
      <trkpt lat="44.05632" lon="0.62879">
        <ele>82</ele>
        <time>2022-12-08T23:54:41Z</time>
      </trkpt>
      <trkpt lat="44.05541" lon="0.63083">
        <ele>76</ele>
        <time>2022-12-08T23:55:12Z</time>
      </trkpt>
      <trkpt lat="44.05528" lon="0.6312">
        <ele>76</ele>
        <time>2022-12-08T23:55:17Z</time>
      </trkpt>
      <trkpt lat="44.05526" lon="0.63155">
        <ele>76</ele>
        <time>2022-12-08T23:55:22Z</time>
      </trkpt>
      <trkpt lat="44.05516" lon="0.63446">
        <ele>65</ele>
        <time>2022-12-08T23:55:59Z</time>
      </trkpt>
      <trkpt lat="44.05512" lon="0.63592">
        <ele>65</ele>
        <time>2022-12-08T23:56:17Z</time>
      </trkpt>
      <trkpt lat="44.05514" lon="0.63629">
        <ele>65</ele>
        <time>2022-12-08T23:56:22Z</time>
      </trkpt>
      <trkpt lat="44.05521" lon="0.63659">
        <ele>65</ele>
        <time>2022-12-08T23:56:26Z</time>
      </trkpt>
      <trkpt lat="44.05594" lon="0.63691">
        <ele>69</ele>
        <time>2022-12-08T23:56:40Z</time>
      </trkpt>
      <trkpt lat="44.05656" lon="0.63722">
        <ele>66</ele>
        <time>2022-12-08T23:56:52Z</time>
      </trkpt>
      <trkpt lat="44.05746" lon="0.63763">
        <ele>65</ele>
        <time>2022-12-08T23:57:08Z</time>
      </trkpt>
      <trkpt lat="44.05862" lon="0.63761">
        <ele>66</ele>
        <time>2022-12-08T23:57:29Z</time>
      </trkpt>
      <trkpt lat="44.05948" lon="0.63786">
        <ele>65</ele>
        <time>2022-12-08T23:57:45Z</time>
      </trkpt>
      <trkpt lat="44.06117" lon="0.63866">
        <ele>61</ele>
        <time>2022-12-08T23:58:16Z</time>
      </trkpt>
      <trkpt lat="44.06273" lon="0.63952">
        <ele>61</ele>
        <time>2022-12-08T23:58:46Z</time>
      </trkpt>
      <trkpt lat="44.06384" lon="0.63999">
        <ele>59</ele>
        <time>2022-12-08T23:59:07Z</time>
      </trkpt>
      <trkpt lat="44.06591" lon="0.64061">
        <ele>63</ele>
        <time>2022-12-08T23:59:45Z</time>
      </trkpt>
      <trkpt lat="44.06615" lon="0.64072">
        <ele>62</ele>
        <time>2022-12-08T23:59:49Z</time>
      </trkpt>
      <trkpt lat="44.06738" lon="0.64165">
        <ele>63</ele>
        <time>2022-12-09T00:00:14Z</time>
      </trkpt>
      <trkpt lat="44.06778" lon="0.64395">
        <ele>60</ele>
        <time>2022-12-09T00:00:44Z</time>
      </trkpt>
      <trkpt lat="44.06798" lon="0.64493">
        <ele>59</ele>
        <time>2022-12-09T00:00:57Z</time>
      </trkpt>
      <trkpt lat="44.06813" lon="0.64667">
        <ele>57</ele>
        <time>2022-12-09T00:01:20Z</time>
      </trkpt>
      <trkpt lat="44.06812" lon="0.64722">
        <ele>57</ele>
        <time>2022-12-09T00:01:27Z</time>
      </trkpt>
      <trkpt lat="44.0681" lon="0.64784">
        <ele>58</ele>
        <time>2022-12-09T00:01:35Z</time>
      </trkpt>
      <trkpt lat="44.06795" lon="0.64825">
        <ele>58</ele>
        <time>2022-12-09T00:01:41Z</time>
      </trkpt>
      <trkpt lat="44.06777" lon="0.64821">
        <ele>58</ele>
        <time>2022-12-09T00:01:44Z</time>
      </trkpt>
      <trkpt lat="44.06685" lon="0.64816">
        <ele>59</ele>
        <time>2022-12-09T00:02:00Z</time>
      </trkpt>
      <trkpt lat="44.06658" lon="0.64821">
        <ele>59</ele>
        <time>2022-12-09T00:02:05Z</time>
      </trkpt>
      <trkpt lat="44.06638" lon="0.64834">
        <ele>59</ele>
        <time>2022-12-09T00:02:09Z</time>
      </trkpt>
      <trkpt lat="44.06609" lon="0.64882">
        <ele>59</ele>
        <time>2022-12-09T00:02:17Z</time>
      </trkpt>
      <trkpt lat="44.06576" lon="0.6493">
        <ele>60</ele>
        <time>2022-12-09T00:02:25Z</time>
      </trkpt>
      <trkpt lat="44.06561" lon="0.64948">
        <ele>63</ele>
        <time>2022-12-09T00:02:29Z</time>
      </trkpt>
      <trkpt lat="44.06551" lon="0.6496">
        <ele>65</ele>
        <time>2022-12-09T00:02:31Z</time>
      </trkpt>
      <trkpt lat="44.06542" lon="0.64966">
        <ele>66</ele>
        <time>2022-12-09T00:02:33Z</time>
      </trkpt>
      <trkpt lat="44.06549" lon="0.64988">
        <ele>67</ele>
        <time>2022-12-09T00:02:36Z</time>
      </trkpt>
      <trkpt lat="44.06557" lon="0.65005">
        <ele>68</ele>
        <time>2022-12-09T00:02:39Z</time>
      </trkpt>
      <trkpt lat="44.0658" lon="0.6503">
        <ele>68</ele>
        <time>2022-12-09T00:02:44Z</time>
      </trkpt>
      <trkpt lat="44.06633" lon="0.65111">
        <ele>67</ele>
        <time>2022-12-09T00:02:58Z</time>
      </trkpt>
      <trkpt lat="44.06657" lon="0.65155">
        <ele>66</ele>
        <time>2022-12-09T00:03:05Z</time>
      </trkpt>
      <trkpt lat="44.06666" lon="0.65177">
        <ele>66</ele>
        <time>2022-12-09T00:03:08Z</time>
      </trkpt>
      <trkpt lat="44.06667" lon="0.65197">
        <ele>67</ele>
        <time>2022-12-09T00:03:11Z</time>
      </trkpt>
      <trkpt lat="44.06665" lon="0.6521">
        <ele>68</ele>
        <time>2022-12-09T00:03:13Z</time>
      </trkpt>
      <trkpt lat="44.06658" lon="0.65225">
        <ele>69</ele>
        <time>2022-12-09T00:03:15Z</time>
      </trkpt>
      <trkpt lat="44.06631" lon="0.65249">
        <ele>71</ele>
        <time>2022-12-09T00:03:21Z</time>
      </trkpt>
      <trkpt lat="44.0659" lon="0.6528">
        <ele>71</ele>
        <time>2022-12-09T00:03:29Z</time>
      </trkpt>
      <trkpt lat="44.06587" lon="0.6528">
        <ele>71</ele>
        <time>2022-12-09T00:03:29Z</time>
      </trkpt>
      <trkpt lat="44.06596" lon="0.65302">
        <ele>70</ele>
        <time>2022-12-09T00:03:33Z</time>
      </trkpt>
      <trkpt lat="44.06642" lon="0.65398">
        <ele>72</ele>
        <time>2022-12-09T00:03:47Z</time>
      </trkpt>
      <trkpt lat="44.06665" lon="0.6545">
        <ele>74</ele>
        <time>2022-12-09T00:03:55Z</time>
      </trkpt>
      <trkpt lat="44.06676" lon="0.65496">
        <ele>76</ele>
        <time>2022-12-09T00:04:01Z</time>
      </trkpt>
      <trkpt lat="44.06693" lon="0.65632">
        <ele>79</ele>
        <time>2022-12-09T00:04:19Z</time>
      </trkpt>
      <trkpt lat="44.06701" lon="0.65664">
        <ele>80</ele>
        <time>2022-12-09T00:04:23Z</time>
      </trkpt>
      <trkpt lat="44.06765" lon="0.65801">
        <ele>83</ele>
        <time>2022-12-09T00:04:44Z</time>
      </trkpt>
      <trkpt lat="44.06784" lon="0.65863">
        <ele>84</ele>
        <time>2022-12-09T00:04:53Z</time>
      </trkpt>
      <trkpt lat="44.06809" lon="0.65912">
        <ele>85</ele>
        <time>2022-12-09T00:05:01Z</time>
      </trkpt>
      <trkpt lat="44.0683" lon="0.65958">
        <ele>86</ele>
        <time>2022-12-09T00:05:08Z</time>
      </trkpt>
      <trkpt lat="44.06835" lon="0.65997">
        <ele>88</ele>
        <time>2022-12-09T00:05:13Z</time>
      </trkpt>
      <trkpt lat="44.06836" lon="0.66051">
        <ele>87</ele>
        <time>2022-12-09T00:05:20Z</time>
      </trkpt>
      <trkpt lat="44.06828" lon="0.66094">
        <ele>87</ele>
        <time>2022-12-09T00:05:25Z</time>
      </trkpt>
      <trkpt lat="44.06782" lon="0.66184">
        <ele>90</ele>
        <time>2022-12-09T00:05:39Z</time>
      </trkpt>
      <trkpt lat="44.06769" lon="0.66216">
        <ele>92</ele>
        <time>2022-12-09T00:05:44Z</time>
      </trkpt>
      <trkpt lat="44.06767" lon="0.66228">
        <ele>92</ele>
        <time>2022-12-09T00:05:46Z</time>
      </trkpt>
      <trkpt lat="44.06769" lon="0.66315">
        <ele>91</ele>
        <time>2022-12-09T00:05:57Z</time>
      </trkpt>
      <trkpt lat="44.06666" lon="0.66746">
        <ele>98</ele>
        <time>2022-12-09T00:06:55Z</time>
      </trkpt>
      <trkpt lat="44.06658" lon="0.6692">
        <ele>106</ele>
        <time>2022-12-09T00:07:17Z</time>
      </trkpt>
      <trkpt lat="44.0662" lon="0.67952">
        <ele>127</ele>
        <time>2022-12-09T00:09:29Z</time>
      </trkpt>
      <trkpt lat="44.06626" lon="0.67998">
        <ele>126</ele>
        <time>2022-12-09T00:09:35Z</time>
      </trkpt>
      <trkpt lat="44.0664" lon="0.68037">
        <ele>125</ele>
        <time>2022-12-09T00:09:41Z</time>
      </trkpt>
      <trkpt lat="44.07081" lon="0.68479">
        <ele>118</ele>
        <time>2022-12-09T00:11:17Z</time>
      </trkpt>
      <trkpt lat="44.07223" lon="0.68624">
        <ele>114</ele>
        <time>2022-12-09T00:11:49Z</time>
      </trkpt>
      <trkpt lat="44.07371" lon="0.68768">
        <ele>115</ele>
        <time>2022-12-09T00:12:21Z</time>
      </trkpt>
      <trkpt lat="44.07788" lon="0.69188">
        <ele>102</ele>
        <time>2022-12-09T00:13:52Z</time>
      </trkpt>
      <trkpt lat="44.07932" lon="0.69328">
        <ele>95</ele>
        <time>2022-12-09T00:14:24Z</time>
      </trkpt>
      <trkpt lat="44.07938" lon="0.69336">
        <ele>95</ele>
        <time>2022-12-09T00:14:25Z</time>
      </trkpt>
      <trkpt lat="44.07943" lon="0.69344">
        <ele>96</ele>
        <time>2022-12-09T00:14:27Z</time>
      </trkpt>
      <trkpt lat="44.07955" lon="0.69361">
        <ele>97</ele>
        <time>2022-12-09T00:14:30Z</time>
      </trkpt>
      <trkpt lat="44.0797" lon="0.69379">
        <ele>98</ele>
        <time>2022-12-09T00:14:33Z</time>
      </trkpt>
      <trkpt lat="44.07982" lon="0.69413">
        <ele>100</ele>
        <time>2022-12-09T00:14:38Z</time>
      </trkpt>
      <trkpt lat="44.0799" lon="0.69474">
        <ele>103</ele>
        <time>2022-12-09T00:14:46Z</time>
      </trkpt>
      <trkpt lat="44.07992" lon="0.69587">
        <ele>106</ele>
        <time>2022-12-09T00:15:00Z</time>
      </trkpt>
      <trkpt lat="44.07996" lon="0.69666">
        <ele>107</ele>
        <time>2022-12-09T00:15:10Z</time>
      </trkpt>
      <trkpt lat="44.08008" lon="0.69688">
        <ele>108</ele>
        <time>2022-12-09T00:15:14Z</time>
      </trkpt>
      <trkpt lat="44.08017" lon="0.69696">
        <ele>110</ele>
        <time>2022-12-09T00:15:16Z</time>
      </trkpt>
      <trkpt lat="44.08028" lon="0.69701">
        <ele>111</ele>
        <time>2022-12-09T00:15:18Z</time>
      </trkpt>
      <trkpt lat="44.08051" lon="0.69693">
        <ele>113</ele>
        <time>2022-12-09T00:15:22Z</time>
      </trkpt>
      <trkpt lat="44.08061" lon="0.69677">
        <ele>113</ele>
        <time>2022-12-09T00:15:25Z</time>
      </trkpt>
      <trkpt lat="44.08065" lon="0.69651">
        <ele>112</ele>
        <time>2022-12-09T00:15:28Z</time>
      </trkpt>
      <trkpt lat="44.08071" lon="0.69622">
        <ele>111</ele>
        <time>2022-12-09T00:15:32Z</time>
      </trkpt>
      <trkpt lat="44.08078" lon="0.69604">
        <ele>111</ele>
        <time>2022-12-09T00:15:35Z</time>
      </trkpt>
      <trkpt lat="44.0809" lon="0.69587">
        <ele>111</ele>
        <time>2022-12-09T00:15:38Z</time>
      </trkpt>
      <trkpt lat="44.0815" lon="0.69559">
        <ele>116</ele>
        <time>2022-12-09T00:15:49Z</time>
      </trkpt>
      <trkpt lat="44.08281" lon="0.69502">
        <ele>120</ele>
        <time>2022-12-09T00:16:13Z</time>
      </trkpt>
      <trkpt lat="44.08307" lon="0.69497">
        <ele>121</ele>
        <time>2022-12-09T00:16:18Z</time>
      </trkpt>
      <trkpt lat="44.08323" lon="0.69507">
        <ele>123</ele>
        <time>2022-12-09T00:16:21Z</time>
      </trkpt>
      <trkpt lat="44.08334" lon="0.69526">
        <ele>125</ele>
        <time>2022-12-09T00:16:24Z</time>
      </trkpt>
      <trkpt lat="44.08338" lon="0.69537">
        <ele>126</ele>
        <time>2022-12-09T00:16:26Z</time>
      </trkpt>
      <trkpt lat="44.08372" lon="0.69616">
        <ele>132</ele>
        <time>2022-12-09T00:16:38Z</time>
      </trkpt>
      <trkpt lat="44.08387" lon="0.69627">
        <ele>132</ele>
        <time>2022-12-09T00:16:41Z</time>
      </trkpt>
      <trkpt lat="44.084" lon="0.69632">
        <ele>132</ele>
        <time>2022-12-09T00:16:43Z</time>
      </trkpt>
      <trkpt lat="44.0844" lon="0.69623">
        <ele>129</ele>
        <time>2022-12-09T00:16:50Z</time>
      </trkpt>
      <trkpt lat="44.08441" lon="0.6961">
        <ele>128</ele>
        <time>2022-12-09T00:16:52Z</time>
      </trkpt>
      <trkpt lat="44.0844" lon="0.69623">
        <ele>129</ele>
        <time>2022-12-09T00:16:54Z</time>
      </trkpt>
      <trkpt lat="44.08458" lon="0.69629">
        <ele>129</ele>
        <time>2022-12-09T00:16:57Z</time>
      </trkpt>
      <trkpt lat="44.08469" lon="0.69649">
        <ele>130</ele>
        <time>2022-12-09T00:17:00Z</time>
      </trkpt>
      <trkpt lat="44.08471" lon="0.69699">
        <ele>133</ele>
        <time>2022-12-09T00:17:07Z</time>
      </trkpt>
      <trkpt lat="44.08464" lon="0.69936">
        <ele>149</ele>
        <time>2022-12-09T00:17:37Z</time>
      </trkpt>
      <trkpt lat="44.08457" lon="0.70007">
        <ele>153</ele>
        <time>2022-12-09T00:17:46Z</time>
      </trkpt>
      <trkpt lat="44.08449" lon="0.70053">
        <ele>151</ele>
        <time>2022-12-09T00:17:52Z</time>
      </trkpt>
      <trkpt lat="44.08447" lon="0.7008">
        <ele>149</ele>
        <time>2022-12-09T00:17:56Z</time>
      </trkpt>
      <trkpt lat="44.08507" lon="0.70312">
        <ele>137</ele>
        <time>2022-12-09T00:18:27Z</time>
      </trkpt>
      <trkpt lat="44.0856" lon="0.70499">
        <ele>127</ele>
        <time>2022-12-09T00:18:53Z</time>
      </trkpt>
      <trkpt lat="44.08589" lon="0.7059">
        <ele>125</ele>
        <time>2022-12-09T00:19:06Z</time>
      </trkpt>
      <trkpt lat="44.0861" lon="0.70645">
        <ele>123</ele>
        <time>2022-12-09T00:19:14Z</time>
      </trkpt>
      <trkpt lat="44.08646" lon="0.7073">
        <ele>120</ele>
        <time>2022-12-09T00:19:26Z</time>
      </trkpt>
      <trkpt lat="44.08672" lon="0.70806">
        <ele>118</ele>
        <time>2022-12-09T00:19:37Z</time>
      </trkpt>
      <trkpt lat="44.08859" lon="0.71436">
        <ele>111</ele>
        <time>2022-12-09T00:21:04Z</time>
      </trkpt>
      <trkpt lat="44.08878" lon="0.71517">
        <ele>112</ele>
        <time>2022-12-09T00:21:15Z</time>
      </trkpt>
      <trkpt lat="44.08916" lon="0.71727">
        <ele>119</ele>
        <time>2022-12-09T00:21:43Z</time>
      </trkpt>
      <trkpt lat="44.08992" lon="0.72174">
        <ele>115</ele>
        <time>2022-12-09T00:22:41Z</time>
      </trkpt>
      <trkpt lat="44.09001" lon="0.72219">
        <ele>114</ele>
        <time>2022-12-09T00:22:47Z</time>
      </trkpt>
      <trkpt lat="44.09019" lon="0.72253">
        <ele>114</ele>
        <time>2022-12-09T00:22:53Z</time>
      </trkpt>
      <trkpt lat="44.09045" lon="0.72269">
        <ele>115</ele>
        <time>2022-12-09T00:22:58Z</time>
      </trkpt>
      <trkpt lat="44.09512" lon="0.72394">
        <ele>119</ele>
        <time>2022-12-09T00:24:22Z</time>
      </trkpt>
      <trkpt lat="44.0971" lon="0.72453">
        <ele>115</ele>
        <time>2022-12-09T00:24:58Z</time>
      </trkpt>
      <trkpt lat="44.09793" lon="0.72492">
        <ele>115</ele>
        <time>2022-12-09T00:25:14Z</time>
      </trkpt>
      <trkpt lat="44.09881" lon="0.7254">
        <ele>114</ele>
        <time>2022-12-09T00:25:31Z</time>
      </trkpt>
      <trkpt lat="44.09934" lon="0.72566">
        <ele>114</ele>
        <time>2022-12-09T00:25:41Z</time>
      </trkpt>
      <trkpt lat="44.0999" lon="0.72576">
        <ele>115</ele>
        <time>2022-12-09T00:25:51Z</time>
      </trkpt>
      <trkpt lat="44.10081" lon="0.72587">
        <ele>116</ele>
        <time>2022-12-09T00:26:07Z</time>
      </trkpt>
      <trkpt lat="44.1015" lon="0.72606">
        <ele>118</ele>
        <time>2022-12-09T00:26:20Z</time>
      </trkpt>
      <trkpt lat="44.10315" lon="0.7268">
        <ele>117</ele>
        <time>2022-12-09T00:26:50Z</time>
      </trkpt>
      <trkpt lat="44.105" lon="0.72803">
        <ele>116</ele>
        <time>2022-12-09T00:27:27Z</time>
      </trkpt>
      <trkpt lat="44.10598" lon="0.72896">
        <ele>115</ele>
        <time>2022-12-09T00:27:48Z</time>
      </trkpt>
      <trkpt lat="44.10729" lon="0.73049">
        <ele>101</ele>
        <time>2022-12-09T00:28:18Z</time>
      </trkpt>
      <trkpt lat="44.10812" lon="0.73141">
        <ele>92</ele>
        <time>2022-12-09T00:28:37Z</time>
      </trkpt>
      <trkpt lat="44.10893" lon="0.73213">
        <ele>88</ele>
        <time>2022-12-09T00:28:54Z</time>
      </trkpt>
      <trkpt lat="44.11054" lon="0.73367">
        <ele>80</ele>
        <time>2022-12-09T00:29:29Z</time>
      </trkpt>
      <trkpt lat="44.11076" lon="0.73386">
        <ele>79</ele>
        <time>2022-12-09T00:29:34Z</time>
      </trkpt>
      <trkpt lat="44.11141" lon="0.73447">
        <ele>77</ele>
        <time>2022-12-09T00:29:48Z</time>
      </trkpt>
      <trkpt lat="44.11271" lon="0.73589">
        <ele>74</ele>
        <time>2022-12-09T00:30:17Z</time>
      </trkpt>
      <trkpt lat="44.113" lon="0.73611">
        <ele>73</ele>
        <time>2022-12-09T00:30:23Z</time>
      </trkpt>
      <trkpt lat="44.11331" lon="0.73626">
        <ele>73</ele>
        <time>2022-12-09T00:30:29Z</time>
      </trkpt>
      <trkpt lat="44.11521" lon="0.73646">
        <ele>76</ele>
        <time>2022-12-09T00:31:03Z</time>
      </trkpt>
      <trkpt lat="44.11545" lon="0.73646">
        <ele>76</ele>
        <time>2022-12-09T00:31:07Z</time>
      </trkpt>
      <trkpt lat="44.11615" lon="0.73654">
        <ele>76</ele>
        <time>2022-12-09T00:31:19Z</time>
      </trkpt>
      <trkpt lat="44.11629" lon="0.73661">
        <ele>76</ele>
        <time>2022-12-09T00:31:22Z</time>
      </trkpt>
      <trkpt lat="44.11652" lon="0.73693">
        <ele>76</ele>
        <time>2022-12-09T00:31:28Z</time>
      </trkpt>
      <trkpt lat="44.11663" lon="0.737">
        <ele>76</ele>
        <time>2022-12-09T00:31:30Z</time>
      </trkpt>
      <trkpt lat="44.117" lon="0.73704">
        <ele>74</ele>
        <time>2022-12-09T00:31:37Z</time>
      </trkpt>
      <trkpt lat="44.11705" lon="0.73708">
        <ele>73</ele>
        <time>2022-12-09T00:31:38Z</time>
      </trkpt>
      <trkpt lat="44.11712" lon="0.73702">
        <ele>73</ele>
        <time>2022-12-09T00:31:39Z</time>
      </trkpt>
      <trkpt lat="44.11743" lon="0.73699">
        <ele>71</ele>
        <time>2022-12-09T00:31:45Z</time>
      </trkpt>
      <trkpt lat="44.11763" lon="0.7369">
        <ele>69</ele>
        <time>2022-12-09T00:31:48Z</time>
      </trkpt>
      <trkpt lat="44.11798" lon="0.7367">
        <ele>65</ele>
        <time>2022-12-09T00:31:55Z</time>
      </trkpt>
      <trkpt lat="44.1182" lon="0.73666">
        <ele>62</ele>
        <time>2022-12-09T00:31:59Z</time>
      </trkpt>
      <trkpt lat="44.11855" lon="0.73675">
        <ele>59</ele>
        <time>2022-12-09T00:32:05Z</time>
      </trkpt>
      <trkpt lat="44.11955" lon="0.73716">
        <ele>54</ele>
        <time>2022-12-09T00:32:24Z</time>
      </trkpt>
      <trkpt lat="44.11965" lon="0.7373">
        <ele>54</ele>
        <time>2022-12-09T00:32:26Z</time>
      </trkpt>
      <trkpt lat="44.11977" lon="0.73763">
        <ele>55</ele>
        <time>2022-12-09T00:32:31Z</time>
      </trkpt>
      <trkpt lat="44.12028" lon="0.73956">
        <ele>53</ele>
        <time>2022-12-09T00:32:57Z</time>
      </trkpt>
      <trkpt lat="44.12039" lon="0.73988">
        <ele>53</ele>
        <time>2022-12-09T00:33:02Z</time>
      </trkpt>
      <trkpt lat="44.12053" lon="0.74015">
        <ele>53</ele>
        <time>2022-12-09T00:33:06Z</time>
      </trkpt>
      <trkpt lat="44.12396" lon="0.74504">
        <ele>54</ele>
        <time>2022-12-09T00:34:34Z</time>
      </trkpt>
      <trkpt lat="44.12631" lon="0.74842">
        <ele>52</ele>
        <time>2022-12-09T00:35:34Z</time>
      </trkpt>
      <trkpt lat="44.12691" lon="0.74932">
        <ele>52</ele>
        <time>2022-12-09T00:35:49Z</time>
      </trkpt>
      <trkpt lat="44.12721" lon="0.74967">
        <ele>53</ele>
        <time>2022-12-09T00:35:56Z</time>
      </trkpt>
      <trkpt lat="44.12871" lon="0.75082">
        <ele>54</ele>
        <time>2022-12-09T00:36:27Z</time>
      </trkpt>
      <trkpt lat="44.12939" lon="0.75155">
        <ele>54</ele>
        <time>2022-12-09T00:36:42Z</time>
      </trkpt>
      <trkpt lat="44.13076" lon="0.7532">
        <ele>55</ele>
        <time>2022-12-09T00:37:14Z</time>
      </trkpt>
      <trkpt lat="44.13127" lon="0.75373">
        <ele>55</ele>
        <time>2022-12-09T00:37:26Z</time>
      </trkpt>
      <trkpt lat="44.13157" lon="0.75401">
        <ele>55</ele>
        <time>2022-12-09T00:37:32Z</time>
      </trkpt>
      <trkpt lat="44.13181" lon="0.75413">
        <ele>55</ele>
        <time>2022-12-09T00:37:37Z</time>
      </trkpt>
      <trkpt lat="44.13379" lon="0.75481">
        <ele>53</ele>
        <time>2022-12-09T00:38:13Z</time>
      </trkpt>
      <trkpt lat="44.13557" lon="0.75552">
        <ele>54</ele>
        <time>2022-12-09T00:38:46Z</time>
      </trkpt>
      <trkpt lat="44.13634" lon="0.75594">
        <ele>54</ele>
        <time>2022-12-09T00:39:01Z</time>
      </trkpt>
      <trkpt lat="44.13708" lon="0.75661">
        <ele>53</ele>
        <time>2022-12-09T00:39:16Z</time>
      </trkpt>
      <trkpt lat="44.13817" lon="0.75766">
        <ele>57</ele>
        <time>2022-12-09T00:39:40Z</time>
      </trkpt>
      <trkpt lat="44.1385" lon="0.75824">
        <ele>60</ele>
        <time>2022-12-09T00:39:49Z</time>
      </trkpt>
      <trkpt lat="44.13881" lon="0.75886">
        <ele>58</ele>
        <time>2022-12-09T00:39:59Z</time>
      </trkpt>
      <trkpt lat="44.13889" lon="0.75899">
        <ele>57</ele>
        <time>2022-12-09T00:40:01Z</time>
      </trkpt>
      <trkpt lat="44.13904" lon="0.75914">
        <ele>57</ele>
        <time>2022-12-09T00:40:04Z</time>
      </trkpt>
      <trkpt lat="44.13931" lon="0.75931">
        <ele>55</ele>
        <time>2022-12-09T00:40:10Z</time>
      </trkpt>
      <trkpt lat="44.14111" lon="0.7603">
        <ele>49</ele>
        <time>2022-12-09T00:40:44Z</time>
      </trkpt>
      <trkpt lat="44.14255" lon="0.76113">
        <ele>49</ele>
        <time>2022-12-09T00:41:12Z</time>
      </trkpt>
      <trkpt lat="44.14384" lon="0.76183">
        <ele>49</ele>
        <time>2022-12-09T00:41:36Z</time>
      </trkpt>
      <trkpt lat="44.14402" lon="0.76187">
        <ele>49</ele>
        <time>2022-12-09T00:41:40Z</time>
      </trkpt>
      <trkpt lat="44.14421" lon="0.76187">
        <ele>49</ele>
        <time>2022-12-09T00:41:43Z</time>
      </trkpt>
      <trkpt lat="44.14437" lon="0.76181">
        <ele>50</ele>
        <time>2022-12-09T00:41:46Z</time>
      </trkpt>
      <trkpt lat="44.14467" lon="0.76157">
        <ele>51</ele>
        <time>2022-12-09T00:41:52Z</time>
      </trkpt>
      <trkpt lat="44.14481" lon="0.76141">
        <ele>51</ele>
        <time>2022-12-09T00:41:55Z</time>
      </trkpt>
      <trkpt lat="44.14831" lon="0.75638">
        <ele>52</ele>
        <time>2022-12-09T00:43:25Z</time>
      </trkpt>
      <trkpt lat="44.14842" lon="0.75625">
        <ele>52</ele>
        <time>2022-12-09T00:43:27Z</time>
      </trkpt>
      <trkpt lat="44.14847" lon="0.75621">
        <ele>52</ele>
        <time>2022-12-09T00:43:28Z</time>
      </trkpt>
      <trkpt lat="44.14856" lon="0.75624">
        <ele>53</ele>
        <time>2022-12-09T00:43:30Z</time>
      </trkpt>
      <trkpt lat="44.14875" lon="0.75633">
        <ele>53</ele>
        <time>2022-12-09T00:43:34Z</time>
      </trkpt>
      <trkpt lat="44.14892" lon="0.75642">
        <ele>53</ele>
        <time>2022-12-09T00:43:37Z</time>
      </trkpt>
      <trkpt lat="44.14896" lon="0.75644">
        <ele>54</ele>
        <time>2022-12-09T00:43:38Z</time>
      </trkpt>
      <trkpt lat="44.14918" lon="0.75654">
        <ele>54</ele>
        <time>2022-12-09T00:43:42Z</time>
      </trkpt>
      <trkpt lat="44.14921" lon="0.75652">
        <ele>54</ele>
        <time>2022-12-09T00:43:42Z</time>
      </trkpt>
      <trkpt lat="44.14931" lon="0.75606">
        <ele>54</ele>
        <time>2022-12-09T00:43:48Z</time>
      </trkpt>
      <trkpt lat="44.14921" lon="0.75652">
        <ele>54</ele>
        <time>2022-12-09T00:43:55Z</time>
      </trkpt>
      <trkpt lat="44.14918" lon="0.75654">
        <ele>54</ele>
        <time>2022-12-09T00:43:55Z</time>
      </trkpt>
      <trkpt lat="44.14896" lon="0.75644">
        <ele>54</ele>
        <time>2022-12-09T00:43:59Z</time>
      </trkpt>
      <trkpt lat="44.14869" lon="0.75752">
        <ele>53</ele>
        <time>2022-12-09T00:44:14Z</time>
      </trkpt>
      <trkpt lat="44.14855" lon="0.75795">
        <ele>54</ele>
        <time>2022-12-09T00:44:20Z</time>
      </trkpt>
      <trkpt lat="44.14834" lon="0.75875">
        <ele>54</ele>
        <time>2022-12-09T00:44:31Z</time>
      </trkpt>
      <trkpt lat="44.14727" lon="0.76289">
        <ele>54</ele>
        <time>2022-12-09T00:45:27Z</time>
      </trkpt>
      <trkpt lat="44.14684" lon="0.76464">
        <ele>54</ele>
        <time>2022-12-09T00:45:51Z</time>
      </trkpt>
      <trkpt lat="44.1446" lon="0.77346">
        <ele>54</ele>
        <time>2022-12-09T00:47:50Z</time>
      </trkpt>
      <trkpt lat="44.14397" lon="0.77581">
        <ele>56</ele>
        <time>2022-12-09T00:48:22Z</time>
      </trkpt>
      <trkpt lat="44.14379" lon="0.77657">
        <ele>55</ele>
        <time>2022-12-09T00:48:32Z</time>
      </trkpt>
      <trkpt lat="44.14373" lon="0.77696">
        <ele>55</ele>
        <time>2022-12-09T00:48:37Z</time>
      </trkpt>
      <trkpt lat="44.14373" lon="0.77705">
        <ele>54</ele>
        <time>2022-12-09T00:48:39Z</time>
      </trkpt>
      <trkpt lat="44.14374" lon="0.77711">
        <ele>54</ele>
        <time>2022-12-09T00:48:39Z</time>
      </trkpt>
      <trkpt lat="44.14377" lon="0.77713">
        <ele>55</ele>
        <time>2022-12-09T00:48:40Z</time>
      </trkpt>
      <trkpt lat="44.14401" lon="0.7772">
        <ele>56</ele>
        <time>2022-12-09T00:48:44Z</time>
      </trkpt>
      <trkpt lat="44.14403" lon="0.77721">
        <ele>56</ele>
        <time>2022-12-09T00:48:45Z</time>
      </trkpt>
      <trkpt lat="44.14403" lon="0.77735">
        <ele>56</ele>
        <time>2022-12-09T00:48:46Z</time>
      </trkpt>
      <trkpt lat="44.14395" lon="0.7779">
        <ele>56</ele>
        <time>2022-12-09T00:48:54Z</time>
      </trkpt>
      <trkpt lat="44.1439" lon="0.77806">
        <ele>56</ele>
        <time>2022-12-09T00:48:56Z</time>
      </trkpt>
      <trkpt lat="44.14388" lon="0.7782">
        <ele>56</ele>
        <time>2022-12-09T00:48:58Z</time>
      </trkpt>
      <trkpt lat="44.14386" lon="0.77891">
        <ele>57</ele>
        <time>2022-12-09T00:49:07Z</time>
      </trkpt>
      <trkpt lat="44.14395" lon="0.78085">
        <ele>58</ele>
        <time>2022-12-09T00:49:32Z</time>
      </trkpt>
      <trkpt lat="44.14456" lon="0.78928">
        <ele>57</ele>
        <time>2022-12-09T00:51:20Z</time>
      </trkpt>
      <trkpt lat="44.14467" lon="0.79012">
        <ele>55</ele>
        <time>2022-12-09T00:51:31Z</time>
      </trkpt>
      <trkpt lat="44.14477" lon="0.79065">
        <ele>55</ele>
        <time>2022-12-09T00:51:38Z</time>
      </trkpt>
      <trkpt lat="44.14497" lon="0.79154">
        <ele>57</ele>
        <time>2022-12-09T00:51:50Z</time>
      </trkpt>
      <trkpt lat="44.14556" lon="0.79395">
        <ele>56</ele>
        <time>2022-12-09T00:52:22Z</time>
      </trkpt>
      <trkpt lat="44.14574" lon="0.79499">
        <ele>58</ele>
        <time>2022-12-09T00:52:36Z</time>
      </trkpt>
      <trkpt lat="44.14576" lon="0.79565">
        <ele>59</ele>
        <time>2022-12-09T00:52:44Z</time>
      </trkpt>
      <trkpt lat="44.14573" lon="0.7958">
        <ele>60</ele>
        <time>2022-12-09T00:52:46Z</time>
      </trkpt>
      <trkpt lat="44.14566" lon="0.79598">
        <ele>60</ele>
        <time>2022-12-09T00:52:49Z</time>
      </trkpt>
      <trkpt lat="44.14566" lon="0.7961">
        <ele>60</ele>
        <time>2022-12-09T00:52:50Z</time>
      </trkpt>
      <trkpt lat="44.1457" lon="0.79621">
        <ele>60</ele>
        <time>2022-12-09T00:52:52Z</time>
      </trkpt>
      <trkpt lat="44.14571" lon="0.79638">
        <ele>60</ele>
        <time>2022-12-09T00:52:54Z</time>
      </trkpt>
      <trkpt lat="44.14566" lon="0.79685">
        <ele>61</ele>
        <time>2022-12-09T00:53:00Z</time>
      </trkpt>
      <trkpt lat="44.14558" lon="0.79722">
        <ele>62</ele>
        <time>2022-12-09T00:53:05Z</time>
      </trkpt>
      <trkpt lat="44.14545" lon="0.79767">
        <ele>63</ele>
        <time>2022-12-09T00:53:11Z</time>
      </trkpt>
      <trkpt lat="44.14534" lon="0.798">
        <ele>64</ele>
        <time>2022-12-09T00:53:16Z</time>
      </trkpt>
      <trkpt lat="44.14497" lon="0.79892">
        <ele>61</ele>
        <time>2022-12-09T00:53:29Z</time>
      </trkpt>
      <trkpt lat="44.14233" lon="0.80576">
        <ele>54</ele>
        <time>2022-12-09T00:55:09Z</time>
      </trkpt>
      <trkpt lat="44.14152" lon="0.80777">
        <ele>54</ele>
        <time>2022-12-09T00:55:38Z</time>
      </trkpt>
      <trkpt lat="44.13876" lon="0.81471">
        <ele>58</ele>
        <time>2022-12-09T00:57:19Z</time>
      </trkpt>
      <trkpt lat="44.13813" lon="0.81552">
        <ele>59</ele>
        <time>2022-12-09T00:57:35Z</time>
      </trkpt>
      <trkpt lat="44.13812" lon="0.81559">
        <ele>58</ele>
        <time>2022-12-09T00:57:35Z</time>
      </trkpt>
      <trkpt lat="44.13802" lon="0.81562">
        <ele>58</ele>
        <time>2022-12-09T00:57:37Z</time>
      </trkpt>
      <trkpt lat="44.13796" lon="0.81567">
        <ele>58</ele>
        <time>2022-12-09T00:57:39Z</time>
      </trkpt>
      <trkpt lat="44.13776" lon="0.81589">
        <ele>58</ele>
        <time>2022-12-09T00:57:43Z</time>
      </trkpt>
      <trkpt lat="44.1377" lon="0.81593">
        <ele>58</ele>
        <time>2022-12-09T00:57:44Z</time>
      </trkpt>
      <trkpt lat="44.1376" lon="0.8159">
        <ele>58</ele>
        <time>2022-12-09T00:57:46Z</time>
      </trkpt>
      <trkpt lat="44.13756" lon="0.81585">
        <ele>59</ele>
        <time>2022-12-09T00:57:47Z</time>
      </trkpt>
      <trkpt lat="44.13737" lon="0.81554">
        <ele>58</ele>
        <time>2022-12-09T00:57:52Z</time>
      </trkpt>
      <trkpt lat="44.1373" lon="0.81548">
        <ele>58</ele>
        <time>2022-12-09T00:57:54Z</time>
      </trkpt>
      <trkpt lat="44.13723" lon="0.81547">
        <ele>57</ele>
        <time>2022-12-09T00:57:55Z</time>
      </trkpt>
      <trkpt lat="44.13718" lon="0.81549">
        <ele>57</ele>
        <time>2022-12-09T00:57:56Z</time>
      </trkpt>
      <trkpt lat="44.1371" lon="0.81557">
        <ele>57</ele>
        <time>2022-12-09T00:57:58Z</time>
      </trkpt>
      <trkpt lat="44.1372" lon="0.81565">
        <ele>57</ele>
        <time>2022-12-09T00:58:00Z</time>
      </trkpt>
      <trkpt lat="44.13721" lon="0.81569">
        <ele>57</ele>
        <time>2022-12-09T00:58:00Z</time>
      </trkpt>
      <trkpt lat="44.13717" lon="0.81575">
        <ele>57</ele>
        <time>2022-12-09T00:58:01Z</time>
      </trkpt>
      <trkpt lat="44.13605" lon="0.81703">
        <ele>54</ele>
        <time>2022-12-09T00:58:27Z</time>
      </trkpt>
      <trkpt lat="44.13472" lon="0.81859">
        <ele>54</ele>
        <time>2022-12-09T00:58:58Z</time>
      </trkpt>
      <trkpt lat="44.13417" lon="0.81933">
        <ele>57</ele>
        <time>2022-12-09T00:59:12Z</time>
      </trkpt>
      <trkpt lat="44.13366" lon="0.82029">
        <ele>56</ele>
        <time>2022-12-09T00:59:27Z</time>
      </trkpt>
      <trkpt lat="44.13343" lon="0.82082">
        <ele>55</ele>
        <time>2022-12-09T00:59:35Z</time>
      </trkpt>
      <trkpt lat="44.13292" lon="0.82206">
        <ele>55</ele>
        <time>2022-12-09T00:59:53Z</time>
      </trkpt>
      <trkpt lat="44.13294" lon="0.82214">
        <ele>55</ele>
        <time>2022-12-09T00:59:54Z</time>
      </trkpt>
      <trkpt lat="44.1329" lon="0.82233">
        <ele>55</ele>
        <time>2022-12-09T00:59:57Z</time>
      </trkpt>
      <trkpt lat="44.13293" lon="0.82239">
        <ele>55</ele>
        <time>2022-12-09T00:59:58Z</time>
      </trkpt>
      <trkpt lat="44.13292" lon="0.82244">
        <ele>55</ele>
        <time>2022-12-09T00:59:58Z</time>
      </trkpt>
      <trkpt lat="44.13285" lon="0.82261">
        <ele>56</ele>
        <time>2022-12-09T01:00:01Z</time>
      </trkpt>
      <trkpt lat="44.13273" lon="0.82266">
        <ele>56</ele>
        <time>2022-12-09T01:00:03Z</time>
      </trkpt>
      <trkpt lat="44.13261" lon="0.82286">
        <ele>56</ele>
        <time>2022-12-09T01:00:06Z</time>
      </trkpt>
      <trkpt lat="44.13235" lon="0.82317">
        <ele>56</ele>
        <time>2022-12-09T01:00:12Z</time>
      </trkpt>
      <trkpt lat="44.13229" lon="0.82319">
        <ele>56</ele>
        <time>2022-12-09T01:00:13Z</time>
      </trkpt>
      <trkpt lat="44.13133" lon="0.82551">
        <ele>55</ele>
        <time>2022-12-09T01:00:48Z</time>
      </trkpt>
      <trkpt lat="44.13134" lon="0.82583">
        <ele>55</ele>
        <time>2022-12-09T01:00:52Z</time>
      </trkpt>
      <trkpt lat="44.1313" lon="0.82595">
        <ele>55</ele>
        <time>2022-12-09T01:00:53Z</time>
      </trkpt>
      <trkpt lat="44.13001" lon="0.82904">
        <ele>56</ele>
        <time>2022-12-09T01:01:39Z</time>
      </trkpt>
      <trkpt lat="44.12821" lon="0.83337">
        <ele>57</ele>
        <time>2022-12-09T01:02:43Z</time>
      </trkpt>
      <trkpt lat="44.12819" lon="0.8335">
        <ele>57</ele>
        <time>2022-12-09T01:02:45Z</time>
      </trkpt>
      <trkpt lat="44.12805" lon="0.83397">
        <ele>57</ele>
        <time>2022-12-09T01:02:51Z</time>
      </trkpt>
      <trkpt lat="44.12505" lon="0.84121">
        <ele>57</ele>
        <time>2022-12-09T01:04:38Z</time>
      </trkpt>
      <trkpt lat="44.12438" lon="0.8425">
        <ele>58</ele>
        <time>2022-12-09T01:04:58Z</time>
      </trkpt>
      <trkpt lat="44.12334" lon="0.84378">
        <ele>59</ele>
        <time>2022-12-09T01:05:23Z</time>
      </trkpt>
      <trkpt lat="44.12197" lon="0.84539">
        <ele>56</ele>
        <time>2022-12-09T01:05:55Z</time>
      </trkpt>
      <trkpt lat="44.12181" lon="0.84564">
        <ele>56</ele>
        <time>2022-12-09T01:05:59Z</time>
      </trkpt>
      <trkpt lat="44.12151" lon="0.84596">
        <ele>55</ele>
        <time>2022-12-09T01:06:06Z</time>
      </trkpt>
      <trkpt lat="44.12142" lon="0.84618">
        <ele>55</ele>
        <time>2022-12-09T01:06:09Z</time>
      </trkpt>
      <trkpt lat="44.12117" lon="0.84646">
        <ele>56</ele>
        <time>2022-12-09T01:06:15Z</time>
      </trkpt>
      <trkpt lat="44.12097" lon="0.84657">
        <ele>56</ele>
        <time>2022-12-09T01:06:19Z</time>
      </trkpt>
      <trkpt lat="44.1208" lon="0.84677">
        <ele>57</ele>
        <time>2022-12-09T01:06:23Z</time>
      </trkpt>
      <trkpt lat="44.1184" lon="0.84959">
        <ele>56</ele>
        <time>2022-12-09T01:07:18Z</time>
      </trkpt>
      <trkpt lat="44.11815" lon="0.84996">
        <ele>57</ele>
        <time>2022-12-09T01:07:25Z</time>
      </trkpt>
      <trkpt lat="44.11794" lon="0.85034">
        <ele>56</ele>
        <time>2022-12-09T01:07:31Z</time>
      </trkpt>
      <trkpt lat="44.11779" lon="0.85064">
        <ele>56</ele>
        <time>2022-12-09T01:07:36Z</time>
      </trkpt>
      <trkpt lat="44.11748" lon="0.85148">
        <ele>59</ele>
        <time>2022-12-09T01:07:48Z</time>
      </trkpt>
      <trkpt lat="44.11738" lon="0.85187">
        <ele>59</ele>
        <time>2022-12-09T01:07:53Z</time>
      </trkpt>
      <trkpt lat="44.11723" lon="0.85277">
        <ele>58</ele>
        <time>2022-12-09T01:08:05Z</time>
      </trkpt>
      <trkpt lat="44.11715" lon="0.85354">
        <ele>58</ele>
        <time>2022-12-09T01:08:15Z</time>
      </trkpt>
      <trkpt lat="44.11708" lon="0.85389">
        <ele>57</ele>
        <time>2022-12-09T01:08:19Z</time>
      </trkpt>
      <trkpt lat="44.117" lon="0.85458">
        <ele>57</ele>
        <time>2022-12-09T01:08:28Z</time>
      </trkpt>
      <trkpt lat="44.11686" lon="0.85559">
        <ele>58</ele>
        <time>2022-12-09T01:08:42Z</time>
      </trkpt>
      <trkpt lat="44.1158" lon="0.86412">
        <ele>59</ele>
        <time>2022-12-09T01:10:32Z</time>
      </trkpt>
      <trkpt lat="44.11578" lon="0.86461">
        <ele>59</ele>
        <time>2022-12-09T01:10:38Z</time>
      </trkpt>
      <trkpt lat="44.11576" lon="0.86482">
        <ele>60</ele>
        <time>2022-12-09T01:10:41Z</time>
      </trkpt>
      <trkpt lat="44.11568" lon="0.86514">
        <ele>59</ele>
        <time>2022-12-09T01:10:45Z</time>
      </trkpt>
      <trkpt lat="44.11519" lon="0.86923">
        <ele>61</ele>
        <time>2022-12-09T01:11:38Z</time>
      </trkpt>
      <trkpt lat="44.11512" lon="0.86965">
        <ele>61</ele>
        <time>2022-12-09T01:11:44Z</time>
      </trkpt>
      <trkpt lat="44.115" lon="0.87012">
        <ele>62</ele>
        <time>2022-12-09T01:11:50Z</time>
      </trkpt>
      <trkpt lat="44.1149" lon="0.8704">
        <ele>61</ele>
        <time>2022-12-09T01:11:54Z</time>
      </trkpt>
      <trkpt lat="44.11459" lon="0.87099">
        <ele>61</ele>
        <time>2022-12-09T01:12:04Z</time>
      </trkpt>
      <trkpt lat="44.11454" lon="0.87115">
        <ele>61</ele>
        <time>2022-12-09T01:12:06Z</time>
      </trkpt>
      <trkpt lat="44.1144" lon="0.87127">
        <ele>61</ele>
        <time>2022-12-09T01:12:09Z</time>
      </trkpt>
      <trkpt lat="44.11429" lon="0.87125">
        <ele>61</ele>
        <time>2022-12-09T01:12:11Z</time>
      </trkpt>
      <trkpt lat="44.11397" lon="0.87153">
        <ele>61</ele>
        <time>2022-12-09T01:12:17Z</time>
      </trkpt>
      <trkpt lat="44.11366" lon="0.87168">
        <ele>61</ele>
        <time>2022-12-09T01:12:23Z</time>
      </trkpt>
      <trkpt lat="44.11325" lon="0.87177">
        <ele>61</ele>
        <time>2022-12-09T01:12:31Z</time>
      </trkpt>
      <trkpt lat="44.11304" lon="0.87177">
        <ele>61</ele>
        <time>2022-12-09T01:12:34Z</time>
      </trkpt>
      <trkpt lat="44.11297" lon="0.87181">
        <ele>62</ele>
        <time>2022-12-09T01:12:36Z</time>
      </trkpt>
      <trkpt lat="44.11283" lon="0.8718">
        <ele>62</ele>
        <time>2022-12-09T01:12:38Z</time>
      </trkpt>
      <trkpt lat="44.11278" lon="0.87174">
        <ele>62</ele>
        <time>2022-12-09T01:12:39Z</time>
      </trkpt>
      <trkpt lat="44.11258" lon="0.87168">
        <ele>62</ele>
        <time>2022-12-09T01:12:43Z</time>
      </trkpt>
      <trkpt lat="44.11247" lon="0.87168">
        <ele>62</ele>
        <time>2022-12-09T01:12:45Z</time>
      </trkpt>
      <trkpt lat="44.11234" lon="0.8717">
        <ele>63</ele>
        <time>2022-12-09T01:12:47Z</time>
      </trkpt>
      <trkpt lat="44.11202" lon="0.87181">
        <ele>64</ele>
        <time>2022-12-09T01:12:53Z</time>
      </trkpt>
      <trkpt lat="44.1119" lon="0.87188">
        <ele>65</ele>
        <time>2022-12-09T01:12:56Z</time>
      </trkpt>
      <trkpt lat="44.11161" lon="0.87225">
        <ele>66</ele>
        <time>2022-12-09T01:13:03Z</time>
      </trkpt>
      <trkpt lat="44.11147" lon="0.87248">
        <ele>67</ele>
        <time>2022-12-09T01:13:06Z</time>
      </trkpt>
      <trkpt lat="44.10591" lon="0.88589">
        <ele>61</ele>
        <time>2022-12-09T01:16:24Z</time>
      </trkpt>
      <trkpt lat="44.10587" lon="0.88593">
        <ele>62</ele>
        <time>2022-12-09T01:16:25Z</time>
      </trkpt>
      <trkpt lat="44.10575" lon="0.8859">
        <ele>62</ele>
        <time>2022-12-09T01:16:27Z</time>
      </trkpt>
      <trkpt lat="44.10566" lon="0.88583">
        <ele>61</ele>
        <time>2022-12-09T01:16:29Z</time>
      </trkpt>
      <trkpt lat="44.10556" lon="0.8857">
        <ele>61</ele>
        <time>2022-12-09T01:16:32Z</time>
      </trkpt>
      <trkpt lat="44.10552" lon="0.8856">
        <ele>61</ele>
        <time>2022-12-09T01:16:33Z</time>
      </trkpt>
      <trkpt lat="44.10547" lon="0.88556">
        <ele>60</ele>
        <time>2022-12-09T01:16:34Z</time>
      </trkpt>
      <trkpt lat="44.10542" lon="0.88558">
        <ele>60</ele>
        <time>2022-12-09T01:16:35Z</time>
      </trkpt>
      <trkpt lat="44.1054" lon="0.8858">
        <ele>60</ele>
        <time>2022-12-09T01:16:38Z</time>
      </trkpt>
      <trkpt lat="44.10541" lon="0.88596">
        <ele>60</ele>
        <time>2022-12-09T01:16:40Z</time>
      </trkpt>
      <trkpt lat="44.10547" lon="0.88606">
        <ele>60</ele>
        <time>2022-12-09T01:16:41Z</time>
      </trkpt>
      <trkpt lat="44.10564" lon="0.88617">
        <ele>61</ele>
        <time>2022-12-09T01:16:45Z</time>
      </trkpt>
      <trkpt lat="44.10566" lon="0.88622">
        <ele>61</ele>
        <time>2022-12-09T01:16:46Z</time>
      </trkpt>
      <trkpt lat="44.10565" lon="0.88628">
        <ele>61</ele>
        <time>2022-12-09T01:16:46Z</time>
      </trkpt>
      <trkpt lat="44.10537" lon="0.88709">
        <ele>59</ele>
        <time>2022-12-09T01:16:58Z</time>
      </trkpt>
      <trkpt lat="44.10505" lon="0.88796">
        <ele>59</ele>
        <time>2022-12-09T01:17:10Z</time>
      </trkpt>
      <trkpt lat="44.10447" lon="0.88935">
        <ele>60</ele>
        <time>2022-12-09T01:17:31Z</time>
      </trkpt>
      <trkpt lat="44.10435" lon="0.88973">
        <ele>61</ele>
        <time>2022-12-09T01:17:36Z</time>
      </trkpt>
      <trkpt lat="44.10426" lon="0.89013">
        <ele>62</ele>
        <time>2022-12-09T01:17:42Z</time>
      </trkpt>
      <trkpt lat="44.10418" lon="0.89064">
        <ele>63</ele>
        <time>2022-12-09T01:17:48Z</time>
      </trkpt>
      <trkpt lat="44.10416" lon="0.89116">
        <ele>62</ele>
        <time>2022-12-09T01:17:55Z</time>
      </trkpt>
      <trkpt lat="44.10415" lon="0.89188">
        <ele>61</ele>
        <time>2022-12-09T01:18:04Z</time>
      </trkpt>
      <trkpt lat="44.10411" lon="0.89206">
        <ele>62</ele>
        <time>2022-12-09T01:18:06Z</time>
      </trkpt>
      <trkpt lat="44.1041" lon="0.8922">
        <ele>62</ele>
        <time>2022-12-09T01:18:08Z</time>
      </trkpt>
      <trkpt lat="44.10416" lon="0.89245">
        <ele>62</ele>
        <time>2022-12-09T01:18:12Z</time>
      </trkpt>
      <trkpt lat="44.10417" lon="0.89261">
        <ele>62</ele>
        <time>2022-12-09T01:18:14Z</time>
      </trkpt>
      <trkpt lat="44.10415" lon="0.89275">
        <ele>63</ele>
        <time>2022-12-09T01:18:15Z</time>
      </trkpt>
      <trkpt lat="44.1041" lon="0.8929">
        <ele>63</ele>
        <time>2022-12-09T01:18:18Z</time>
      </trkpt>
      <trkpt lat="44.10409" lon="0.89347">
        <ele>65</ele>
        <time>2022-12-09T01:18:25Z</time>
      </trkpt>
      <trkpt lat="44.10413" lon="0.89361">
        <ele>65</ele>
        <time>2022-12-09T01:18:27Z</time>
      </trkpt>
      <trkpt lat="44.10415" lon="0.89379">
        <ele>66</ele>
        <time>2022-12-09T01:18:29Z</time>
      </trkpt>
      <trkpt lat="44.10414" lon="0.89762">
        <ele>65</ele>
        <time>2022-12-09T01:19:18Z</time>
      </trkpt>
      <trkpt lat="44.10411" lon="0.89832">
        <ele>63</ele>
        <time>2022-12-09T01:19:27Z</time>
      </trkpt>
      <trkpt lat="44.10402" lon="0.89911">
        <ele>63</ele>
        <time>2022-12-09T01:19:37Z</time>
      </trkpt>
      <trkpt lat="44.10379" lon="0.90016">
        <ele>66</ele>
        <time>2022-12-09T01:19:51Z</time>
      </trkpt>
      <trkpt lat="44.10366" lon="0.90072">
        <ele>64</ele>
        <time>2022-12-09T01:19:59Z</time>
      </trkpt>
      <trkpt lat="44.10366" lon="0.90098">
        <ele>64</ele>
        <time>2022-12-09T01:20:02Z</time>
      </trkpt>
      <trkpt lat="44.10044" lon="0.91414">
        <ele>64</ele>
        <time>2022-12-09T01:23:00Z</time>
      </trkpt>
      <trkpt lat="44.10031" lon="0.91471">
        <ele>65</ele>
        <time>2022-12-09T01:23:07Z</time>
      </trkpt>
      <trkpt lat="44.10017" lon="0.91548">
        <ele>63</ele>
        <time>2022-12-09T01:23:18Z</time>
      </trkpt>
      <trkpt lat="44.10006" lon="0.9159">
        <ele>62</ele>
        <time>2022-12-09T01:23:23Z</time>
      </trkpt>
      <trkpt lat="44.10003" lon="0.91634">
        <ele>63</ele>
        <time>2022-12-09T01:23:29Z</time>
      </trkpt>
      <trkpt lat="44.10004" lon="0.91659">
        <ele>64</ele>
        <time>2022-12-09T01:23:32Z</time>
      </trkpt>
      <trkpt lat="44.09905" lon="0.92423">
        <ele>66</ele>
        <time>2022-12-09T01:25:11Z</time>
      </trkpt>
      <trkpt lat="44.09697" lon="0.93446">
        <ele>69</ele>
        <time>2022-12-09T01:27:27Z</time>
      </trkpt>
      <trkpt lat="44.09544" lon="0.94185">
        <ele>68</ele>
        <time>2022-12-09T01:29:05Z</time>
      </trkpt>
      <trkpt lat="44.09389" lon="0.94914">
        <ele>73</ele>
        <time>2022-12-09T01:30:43Z</time>
      </trkpt>
      <trkpt lat="44.09352" lon="0.95045">
        <ele>74</ele>
        <time>2022-12-09T01:31:01Z</time>
      </trkpt>
      <trkpt lat="44.09264" lon="0.95373">
        <ele>71</ele>
        <time>2022-12-09T01:31:45Z</time>
      </trkpt>
      <trkpt lat="44.08977" lon="0.96391">
        <ele>69</ele>
        <time>2022-12-09T01:34:05Z</time>
      </trkpt>
      <trkpt lat="44.08965" lon="0.96402">
        <ele>69</ele>
        <time>2022-12-09T01:34:08Z</time>
      </trkpt>
      <trkpt lat="44.08961" lon="0.9641">
        <ele>69</ele>
        <time>2022-12-09T01:34:09Z</time>
      </trkpt>
      <trkpt lat="44.0896" lon="0.96419">
        <ele>69</ele>
        <time>2022-12-09T01:34:10Z</time>
      </trkpt>
      <trkpt lat="44.08962" lon="0.96447">
        <ele>69</ele>
        <time>2022-12-09T01:34:14Z</time>
      </trkpt>
      <trkpt lat="44.08818" lon="0.96963">
        <ele>67</ele>
        <time>2022-12-09T01:35:24Z</time>
      </trkpt>
      <trkpt lat="44.08811" lon="0.96981">
        <ele>67</ele>
        <time>2022-12-09T01:35:27Z</time>
      </trkpt>
      <trkpt lat="44.08803" lon="0.96984">
        <ele>66</ele>
        <time>2022-12-09T01:35:28Z</time>
      </trkpt>
      <trkpt lat="44.08758" lon="0.97129">
        <ele>66</ele>
        <time>2022-12-09T01:35:49Z</time>
      </trkpt>
      <trkpt lat="44.08741" lon="0.97178">
        <ele>67</ele>
        <time>2022-12-09T01:35:56Z</time>
      </trkpt>
      <trkpt lat="44.08712" lon="0.97242">
        <ele>67</ele>
        <time>2022-12-09T01:36:05Z</time>
      </trkpt>
      <trkpt lat="44.08664" lon="0.97322">
        <ele>66</ele>
        <time>2022-12-09T01:36:19Z</time>
      </trkpt>
      <trkpt lat="44.08484" lon="0.97594">
        <ele>66</ele>
        <time>2022-12-09T01:37:06Z</time>
      </trkpt>
      <trkpt lat="44.08459" lon="0.97636">
        <ele>67</ele>
        <time>2022-12-09T01:37:13Z</time>
      </trkpt>
      <trkpt lat="44.08425" lon="0.97708">
        <ele>67</ele>
        <time>2022-12-09T01:37:24Z</time>
      </trkpt>
      <trkpt lat="44.08399" lon="0.97787">
        <ele>68</ele>
        <time>2022-12-09T01:37:35Z</time>
      </trkpt>
      <trkpt lat="44.08392" lon="0.97814">
        <ele>68</ele>
        <time>2022-12-09T01:37:39Z</time>
      </trkpt>
      <trkpt lat="44.08362" lon="0.97988">
        <ele>68</ele>
        <time>2022-12-09T01:38:02Z</time>
      </trkpt>
      <trkpt lat="44.08358" lon="0.98023">
        <ele>68</ele>
        <time>2022-12-09T01:38:06Z</time>
      </trkpt>
      <trkpt lat="44.08345" lon="0.98093">
        <ele>68</ele>
        <time>2022-12-09T01:38:15Z</time>
      </trkpt>
      <trkpt lat="44.08342" lon="0.9814">
        <ele>67</ele>
        <time>2022-12-09T01:38:21Z</time>
      </trkpt>
      <trkpt lat="44.08343" lon="0.98188">
        <ele>67</ele>
        <time>2022-12-09T01:38:27Z</time>
      </trkpt>
      <trkpt lat="44.08348" lon="0.98217">
        <ele>68</ele>
        <time>2022-12-09T01:38:31Z</time>
      </trkpt>
      <trkpt lat="44.08359" lon="0.9829">
        <ele>68</ele>
        <time>2022-12-09T01:38:41Z</time>
      </trkpt>
      <trkpt lat="44.0838" lon="0.98395">
        <ele>68</ele>
        <time>2022-12-09T01:38:55Z</time>
      </trkpt>
      <trkpt lat="44.08388" lon="0.98417">
        <ele>68</ele>
        <time>2022-12-09T01:38:58Z</time>
      </trkpt>
      <trkpt lat="44.08402" lon="0.98448">
        <ele>67</ele>
        <time>2022-12-09T01:39:03Z</time>
      </trkpt>
      <trkpt lat="44.08435" lon="0.985">
        <ele>67</ele>
        <time>2022-12-09T01:39:11Z</time>
      </trkpt>
      <trkpt lat="44.08946" lon="0.9918">
        <ele>71</ele>
        <time>2022-12-09T01:41:17Z</time>
      </trkpt>
      <trkpt lat="44.09001" lon="0.99309">
        <ele>73</ele>
        <time>2022-12-09T01:41:36Z</time>
      </trkpt>
      <trkpt lat="44.09038" lon="0.99455">
        <ele>68</ele>
        <time>2022-12-09T01:41:56Z</time>
      </trkpt>
      <trkpt lat="44.0916" lon="1.00472">
        <ele>70</ele>
        <time>2022-12-09T01:44:08Z</time>
      </trkpt>
      <trkpt lat="44.09157" lon="1.0054">
        <ele>69</ele>
        <time>2022-12-09T01:44:17Z</time>
      </trkpt>
      <trkpt lat="44.0915" lon="1.0057">
        <ele>67</ele>
        <time>2022-12-09T01:44:21Z</time>
      </trkpt>
      <trkpt lat="44.09147" lon="1.00638">
        <ele>68</ele>
        <time>2022-12-09T01:44:29Z</time>
      </trkpt>
      <trkpt lat="44.09118" lon="1.00841">
        <ele>70</ele>
        <time>2022-12-09T01:44:56Z</time>
      </trkpt>
      <trkpt lat="44.09111" lon="1.00943">
        <ele>70</ele>
        <time>2022-12-09T01:45:09Z</time>
      </trkpt>
      <trkpt lat="44.09122" lon="1.01364">
        <ele>69</ele>
        <time>2022-12-09T01:46:03Z</time>
      </trkpt>
      <trkpt lat="44.09127" lon="1.01441">
        <ele>70</ele>
        <time>2022-12-09T01:46:13Z</time>
      </trkpt>
      <trkpt lat="44.09141" lon="1.01544">
        <ele>70</ele>
        <time>2022-12-09T01:46:26Z</time>
      </trkpt>
      <trkpt lat="44.09166" lon="1.01647">
        <ele>70</ele>
        <time>2022-12-09T01:46:40Z</time>
      </trkpt>
      <trkpt lat="44.09195" lon="1.01738">
        <ele>70</ele>
        <time>2022-12-09T01:46:53Z</time>
      </trkpt>
      <trkpt lat="44.09328" lon="1.02068">
        <ele>67</ele>
        <time>2022-12-09T01:47:41Z</time>
      </trkpt>
      <trkpt lat="44.09356" lon="1.02156">
        <ele>68</ele>
        <time>2022-12-09T01:47:53Z</time>
      </trkpt>
      <trkpt lat="44.09371" lon="1.02214">
        <ele>68</ele>
        <time>2022-12-09T01:48:01Z</time>
      </trkpt>
      <trkpt lat="44.09386" lon="1.02313">
        <ele>65</ele>
        <time>2022-12-09T01:48:14Z</time>
      </trkpt>
      <trkpt lat="44.09391" lon="1.02384">
        <ele>66</ele>
        <time>2022-12-09T01:48:23Z</time>
      </trkpt>
      <trkpt lat="44.09392" lon="1.02493">
        <ele>68</ele>
        <time>2022-12-09T01:48:37Z</time>
      </trkpt>
      <trkpt lat="44.09378" lon="1.02601">
        <ele>68</ele>
        <time>2022-12-09T01:48:51Z</time>
      </trkpt>
      <trkpt lat="44.09355" lon="1.02708">
        <ele>70</ele>
        <time>2022-12-09T01:49:05Z</time>
      </trkpt>
      <trkpt lat="44.09292" lon="1.0292">
        <ele>69</ele>
        <time>2022-12-09T01:49:35Z</time>
      </trkpt>
      <trkpt lat="44.0926" lon="1.03034">
        <ele>69</ele>
        <time>2022-12-09T01:49:50Z</time>
      </trkpt>
      <trkpt lat="44.09238" lon="1.03152">
        <ele>68</ele>
        <time>2022-12-09T01:50:06Z</time>
      </trkpt>
      <trkpt lat="44.09219" lon="1.03344">
        <ele>68</ele>
        <time>2022-12-09T01:50:31Z</time>
      </trkpt>
      <trkpt lat="44.09185" lon="1.03541">
        <ele>69</ele>
        <time>2022-12-09T01:50:57Z</time>
      </trkpt>
      <trkpt lat="44.09135" lon="1.03712">
        <ele>69</ele>
        <time>2022-12-09T01:51:20Z</time>
      </trkpt>
      <trkpt lat="44.09007" lon="1.04042">
        <ele>70</ele>
        <time>2022-12-09T01:52:08Z</time>
      </trkpt>
      <trkpt lat="44.08998" lon="1.04075">
        <ele>71</ele>
        <time>2022-12-09T01:52:13Z</time>
      </trkpt>
      <trkpt lat="44.08992" lon="1.04114">
        <ele>71</ele>
        <time>2022-12-09T01:52:18Z</time>
      </trkpt>
      <trkpt lat="44.08991" lon="1.04164">
        <ele>72</ele>
        <time>2022-12-09T01:52:24Z</time>
      </trkpt>
      <trkpt lat="44.08992" lon="1.04187">
        <ele>72</ele>
        <time>2022-12-09T01:52:27Z</time>
      </trkpt>
      <trkpt lat="44.08994" lon="1.04213">
        <ele>72</ele>
        <time>2022-12-09T01:52:30Z</time>
      </trkpt>
      <trkpt lat="44.09046" lon="1.04555">
        <ele>71</ele>
        <time>2022-12-09T01:53:15Z</time>
      </trkpt>
      <trkpt lat="44.09059" lon="1.0461">
        <ele>70</ele>
        <time>2022-12-09T01:53:23Z</time>
      </trkpt>
      <trkpt lat="44.0907" lon="1.04644">
        <ele>70</ele>
        <time>2022-12-09T01:53:27Z</time>
      </trkpt>
      <trkpt lat="44.09099" lon="1.04711">
        <ele>71</ele>
        <time>2022-12-09T01:53:37Z</time>
      </trkpt>
      <trkpt lat="44.09208" lon="1.04916">
        <ele>72</ele>
        <time>2022-12-09T01:54:10Z</time>
      </trkpt>
      <trkpt lat="44.09306" lon="1.05105">
        <ele>70</ele>
        <time>2022-12-09T01:54:40Z</time>
      </trkpt>
      <trkpt lat="44.09327" lon="1.05138">
        <ele>70</ele>
        <time>2022-12-09T01:54:45Z</time>
      </trkpt>
      <trkpt lat="44.09376" lon="1.05236">
        <ele>70</ele>
        <time>2022-12-09T01:55:01Z</time>
      </trkpt>
      <trkpt lat="44.09409" lon="1.05306">
        <ele>70</ele>
        <time>2022-12-09T01:55:11Z</time>
      </trkpt>
      <trkpt lat="44.09446" lon="1.05395">
        <ele>69</ele>
        <time>2022-12-09T01:55:24Z</time>
      </trkpt>
      <trkpt lat="44.09465" lon="1.05453">
        <ele>70</ele>
        <time>2022-12-09T01:55:33Z</time>
      </trkpt>
      <trkpt lat="44.09479" lon="1.05502">
        <ele>70</ele>
        <time>2022-12-09T01:55:39Z</time>
      </trkpt>
      <trkpt lat="44.09501" lon="1.05604">
        <ele>71</ele>
        <time>2022-12-09T01:55:53Z</time>
      </trkpt>
      <trkpt lat="44.09509" lon="1.05653">
        <ele>72</ele>
        <time>2022-12-09T01:55:59Z</time>
      </trkpt>
      <trkpt lat="44.09525" lon="1.05783">
        <ele>70</ele>
        <time>2022-12-09T01:56:16Z</time>
      </trkpt>
      <trkpt lat="44.0955" lon="1.061">
        <ele>69</ele>
        <time>2022-12-09T01:56:57Z</time>
      </trkpt>
      <trkpt lat="44.09556" lon="1.06145">
        <ele>69</ele>
        <time>2022-12-09T01:57:03Z</time>
      </trkpt>
      <trkpt lat="44.09565" lon="1.06188">
        <ele>69</ele>
        <time>2022-12-09T01:57:09Z</time>
      </trkpt>
      <trkpt lat="44.09584" lon="1.06257">
        <ele>70</ele>
        <time>2022-12-09T01:57:18Z</time>
      </trkpt>
      <trkpt lat="44.09599" lon="1.06299">
        <ele>69</ele>
        <time>2022-12-09T01:57:24Z</time>
      </trkpt>
      <trkpt lat="44.0962" lon="1.06345">
        <ele>68</ele>
        <time>2022-12-09T01:57:31Z</time>
      </trkpt>
      <trkpt lat="44.09639" lon="1.06378">
        <ele>68</ele>
        <time>2022-12-09T01:57:36Z</time>
      </trkpt>
      <trkpt lat="44.0979" lon="1.06606">
        <ele>71</ele>
        <time>2022-12-09T01:58:16Z</time>
      </trkpt>
      <trkpt lat="44.09849" lon="1.06691">
        <ele>73</ele>
        <time>2022-12-09T01:58:31Z</time>
      </trkpt>
      <trkpt lat="44.09877" lon="1.06739">
        <ele>73</ele>
        <time>2022-12-09T01:58:39Z</time>
      </trkpt>
      <trkpt lat="44.09905" lon="1.0679">
        <ele>72</ele>
        <time>2022-12-09T01:58:47Z</time>
      </trkpt>
      <trkpt lat="44.10003" lon="1.07034">
        <ele>72</ele>
        <time>2022-12-09T01:59:23Z</time>
      </trkpt>
      <trkpt lat="44.10045" lon="1.07153">
        <ele>73</ele>
        <time>2022-12-09T01:59:40Z</time>
      </trkpt>
      <trkpt lat="44.1007" lon="1.07249">
        <ele>71</ele>
        <time>2022-12-09T01:59:53Z</time>
      </trkpt>
      <trkpt lat="44.1008" lon="1.07321">
        <ele>69</ele>
        <time>2022-12-09T02:00:02Z</time>
      </trkpt>
      <trkpt lat="44.10084" lon="1.07366">
        <ele>69</ele>
        <time>2022-12-09T02:00:08Z</time>
      </trkpt>
      <trkpt lat="44.10083" lon="1.0739">
        <ele>70</ele>
        <time>2022-12-09T02:00:11Z</time>
      </trkpt>
      <trkpt lat="44.10087" lon="1.074">
        <ele>70</ele>
        <time>2022-12-09T02:00:13Z</time>
      </trkpt>
      <trkpt lat="44.10088" lon="1.07423">
        <ele>70</ele>
        <time>2022-12-09T02:00:16Z</time>
      </trkpt>
      <trkpt lat="44.10086" lon="1.07676">
        <ele>70</ele>
        <time>2022-12-09T02:00:48Z</time>
      </trkpt>
      <trkpt lat="44.10086" lon="1.07739">
        <ele>70</ele>
        <time>2022-12-09T02:00:56Z</time>
      </trkpt>
      <trkpt lat="44.10088" lon="1.07756">
        <ele>70</ele>
        <time>2022-12-09T02:00:58Z</time>
      </trkpt>
      <trkpt lat="44.10085" lon="1.0776">
        <ele>70</ele>
        <time>2022-12-09T02:00:59Z</time>
      </trkpt>
      <trkpt lat="44.10082" lon="1.07788">
        <ele>70</ele>
        <time>2022-12-09T02:01:02Z</time>
      </trkpt>
      <trkpt lat="44.10081" lon="1.07799">
        <ele>70</ele>
        <time>2022-12-09T02:01:04Z</time>
      </trkpt>
      <trkpt lat="44.10083" lon="1.07804">
        <ele>70</ele>
        <time>2022-12-09T02:01:05Z</time>
      </trkpt>
      <trkpt lat="44.10087" lon="1.07806">
        <ele>70</ele>
        <time>2022-12-09T02:01:05Z</time>
      </trkpt>
      <trkpt lat="44.10091" lon="1.07806">
        <ele>70</ele>
        <time>2022-12-09T02:01:06Z</time>
      </trkpt>
      <trkpt lat="44.10095" lon="1.07802">
        <ele>71</ele>
        <time>2022-12-09T02:01:07Z</time>
      </trkpt>
      <trkpt lat="44.10109" lon="1.07812">
        <ele>71</ele>
        <time>2022-12-09T02:01:10Z</time>
      </trkpt>
      <trkpt lat="44.10114" lon="1.07822">
        <ele>71</ele>
        <time>2022-12-09T02:01:11Z</time>
      </trkpt>
      <trkpt lat="44.10188" lon="1.08081">
        <ele>73</ele>
        <time>2022-12-09T02:01:47Z</time>
      </trkpt>
      <trkpt lat="44.10231" lon="1.08242">
        <ele>74</ele>
        <time>2022-12-09T02:02:09Z</time>
      </trkpt>
      <trkpt lat="44.10232" lon="1.08251">
        <ele>74</ele>
        <time>2022-12-09T02:02:10Z</time>
      </trkpt>
      <trkpt lat="44.10229" lon="1.08256">
        <ele>74</ele>
        <time>2022-12-09T02:02:11Z</time>
      </trkpt>
      <trkpt lat="44.10219" lon="1.0826">
        <ele>74</ele>
        <time>2022-12-09T02:02:13Z</time>
      </trkpt>
      <trkpt lat="44.10205" lon="1.08258">
        <ele>73</ele>
        <time>2022-12-09T02:02:15Z</time>
      </trkpt>
      <trkpt lat="44.10202" lon="1.08262">
        <ele>73</ele>
        <time>2022-12-09T02:02:16Z</time>
      </trkpt>
      <trkpt lat="44.10201" lon="1.08266">
        <ele>73</ele>
        <time>2022-12-09T02:02:16Z</time>
      </trkpt>
      <trkpt lat="44.10221" lon="1.08268">
        <ele>74</ele>
        <time>2022-12-09T02:02:20Z</time>
      </trkpt>
      <trkpt lat="44.10237" lon="1.08263">
        <ele>74</ele>
        <time>2022-12-09T02:02:23Z</time>
      </trkpt>
      <trkpt lat="44.1025" lon="1.08258">
        <ele>74</ele>
        <time>2022-12-09T02:02:25Z</time>
      </trkpt>
    </trkseg>
  </trk>
</gpx>